<?xml version="1.0" encoding="UTF-8" standalone="no" ?>
<gpx xmlns="http://www.topografix.com/GPX/1/1" xmlns:xsi="http://www.w3.org/2001/XMLSchema-instance" xsi:schemaLocation="http://www.topografix.com/GPX/1/1 http://www.topografix.com/GPX/1/1/gpx.xsd" version="1.1" creator="VisuGPX - https://www.visugpx.com">
  <metadata>
    <name>Lees ocres de Gargas</name>
    <desc><![CDATA[Balade dans les ocres autour de Gargas puis montée jusqu'a la chapelle de Sainte Radegonde]]></desc>
  </metadata>
  <trk>
    <name><![CDATA[2019-11-25 14:37:25]]></name>
    <trkseg>
      <trkpt lat="43.90337" lon="5.35754">
        <ele>275.07</ele>
        <time>2019-11-25T08:57:37Z</time>
      </trkpt>
      <trkpt lat="43.90337" lon="5.35755">
        <ele>275.07</ele>
        <time>2019-11-25T08:57:38Z</time>
      </trkpt>
      <trkpt lat="43.90336" lon="5.35755">
        <ele>280.36</ele>
        <time>2019-11-25T08:57:41Z</time>
      </trkpt>
      <trkpt lat="43.90336" lon="5.35755">
        <ele>280.36</ele>
        <time>2019-11-25T08:57:42Z</time>
      </trkpt>
      <trkpt lat="43.90335" lon="5.35752">
        <ele>280.36</ele>
        <time>2019-11-25T08:58:09Z</time>
      </trkpt>
      <trkpt lat="43.90335" lon="5.35752">
        <ele>280.36</ele>
        <time>2019-11-25T08:58:23Z</time>
      </trkpt>
      <trkpt lat="43.90333" lon="5.35754">
        <ele>279.88</ele>
        <time>2019-11-25T08:58:38Z</time>
      </trkpt>
      <trkpt lat="43.90337" lon="5.35757">
        <ele>279.88</ele>
        <time>2019-11-25T08:59:00Z</time>
      </trkpt>
      <trkpt lat="43.9034" lon="5.35754">
        <ele>279.88</ele>
        <time>2019-11-25T08:59:25Z</time>
      </trkpt>
      <trkpt lat="43.90344" lon="5.3575">
        <ele>279.88</ele>
        <time>2019-11-25T08:59:42Z</time>
      </trkpt>
      <trkpt lat="43.90359" lon="5.35749">
        <ele>279.88</ele>
        <time>2019-11-25T09:00:00Z</time>
      </trkpt>
      <trkpt lat="43.90373" lon="5.35752">
        <ele>279.88</ele>
        <time>2019-11-25T09:00:16Z</time>
      </trkpt>
      <trkpt lat="43.90392" lon="5.35748">
        <ele>279.88</ele>
        <time>2019-11-25T09:00:36Z</time>
      </trkpt>
      <trkpt lat="43.90404" lon="5.35742">
        <ele>279.4</ele>
        <time>2019-11-25T09:00:53Z</time>
      </trkpt>
      <trkpt lat="43.90406" lon="5.35738">
        <ele>279.4</ele>
        <time>2019-11-25T09:01:07Z</time>
      </trkpt>
      <trkpt lat="43.90396" lon="5.35734">
        <ele>278.92</ele>
        <time>2019-11-25T09:01:36Z</time>
      </trkpt>
      <trkpt lat="43.90419" lon="5.35735">
        <ele>278.92</ele>
        <time>2019-11-25T09:01:48Z</time>
      </trkpt>
      <trkpt lat="43.90419" lon="5.35718">
        <ele>280.36</ele>
        <time>2019-11-25T09:02:02Z</time>
      </trkpt>
      <trkpt lat="43.9042" lon="5.35717">
        <ele>280.36</ele>
        <time>2019-11-25T09:02:03Z</time>
      </trkpt>
      <trkpt lat="43.9042" lon="5.35698">
        <ele>279.88</ele>
        <time>2019-11-25T09:02:17Z</time>
      </trkpt>
      <trkpt lat="43.9042" lon="5.35696">
        <ele>279.88</ele>
        <time>2019-11-25T09:02:18Z</time>
      </trkpt>
      <trkpt lat="43.90422" lon="5.35674">
        <ele>280.36</ele>
        <time>2019-11-25T09:02:33Z</time>
      </trkpt>
      <trkpt lat="43.90425" lon="5.35644">
        <ele>280.84</ele>
        <time>2019-11-25T09:02:54Z</time>
      </trkpt>
      <trkpt lat="43.90428" lon="5.35615">
        <ele>281.32</ele>
        <time>2019-11-25T09:03:13Z</time>
      </trkpt>
      <trkpt lat="43.90431" lon="5.35588">
        <ele>282.28</ele>
        <time>2019-11-25T09:03:32Z</time>
      </trkpt>
      <trkpt lat="43.9044" lon="5.35562">
        <ele>282.77</ele>
        <time>2019-11-25T09:03:51Z</time>
      </trkpt>
      <trkpt lat="43.90452" lon="5.35541">
        <ele>283.73</ele>
        <time>2019-11-25T09:04:11Z</time>
      </trkpt>
      <trkpt lat="43.90469" lon="5.35516">
        <ele>285.17</ele>
        <time>2019-11-25T09:04:34Z</time>
      </trkpt>
      <trkpt lat="43.90482" lon="5.35502">
        <ele>286.61</ele>
        <time>2019-11-25T09:04:53Z</time>
      </trkpt>
      <trkpt lat="43.90494" lon="5.35496">
        <ele>286.61</ele>
        <time>2019-11-25T09:05:12Z</time>
      </trkpt>
      <trkpt lat="43.90516" lon="5.35489">
        <ele>287.57</ele>
        <time>2019-11-25T09:05:31Z</time>
      </trkpt>
      <trkpt lat="43.90536" lon="5.35478">
        <ele>289.01</ele>
        <time>2019-11-25T09:05:50Z</time>
      </trkpt>
      <trkpt lat="43.9055" lon="5.35472">
        <ele>289.01</ele>
        <time>2019-11-25T09:06:07Z</time>
      </trkpt>
      <trkpt lat="43.90561" lon="5.35458">
        <ele>289.01</ele>
        <time>2019-11-25T09:06:24Z</time>
      </trkpt>
      <trkpt lat="43.90573" lon="5.35442">
        <ele>289.49</ele>
        <time>2019-11-25T09:06:40Z</time>
      </trkpt>
      <trkpt lat="43.9059" lon="5.35427">
        <ele>289.97</ele>
        <time>2019-11-25T09:06:59Z</time>
      </trkpt>
      <trkpt lat="43.90604" lon="5.35414">
        <ele>289.97</ele>
        <time>2019-11-25T09:07:14Z</time>
      </trkpt>
      <trkpt lat="43.9061" lon="5.35408">
        <ele>290.94</ele>
        <time>2019-11-25T09:07:28Z</time>
      </trkpt>
      <trkpt lat="43.9061" lon="5.35408">
        <ele>290.46</ele>
        <time>2019-11-25T09:07:39Z</time>
      </trkpt>
      <trkpt lat="43.90608" lon="5.35408">
        <ele>289.97</ele>
        <time>2019-11-25T09:08:07Z</time>
      </trkpt>
      <trkpt lat="43.9061" lon="5.35404">
        <ele>289.97</ele>
        <time>2019-11-25T09:08:41Z</time>
      </trkpt>
      <trkpt lat="43.90608" lon="5.35403">
        <ele>289.49</ele>
        <time>2019-11-25T09:09:07Z</time>
      </trkpt>
      <trkpt lat="43.90605" lon="5.354">
        <ele>289.49</ele>
        <time>2019-11-25T09:09:43Z</time>
      </trkpt>
      <trkpt lat="43.90606" lon="5.35399">
        <ele>289.49</ele>
        <time>2019-11-25T09:10:14Z</time>
      </trkpt>
      <trkpt lat="43.90612" lon="5.35404">
        <ele>289.49</ele>
        <time>2019-11-25T09:10:45Z</time>
      </trkpt>
      <trkpt lat="43.90607" lon="5.3539">
        <ele>289.49</ele>
        <time>2019-11-25T09:11:02Z</time>
      </trkpt>
      <trkpt lat="43.90599" lon="5.35369">
        <ele>290.94</ele>
        <time>2019-11-25T09:11:20Z</time>
      </trkpt>
      <trkpt lat="43.906" lon="5.35359">
        <ele>290.94</ele>
        <time>2019-11-25T09:11:27Z</time>
      </trkpt>
      <trkpt lat="43.90606" lon="5.35336">
        <ele>292.86</ele>
        <time>2019-11-25T09:11:43Z</time>
      </trkpt>
      <trkpt lat="43.90611" lon="5.35316">
        <ele>294.78</ele>
        <time>2019-11-25T09:11:59Z</time>
      </trkpt>
      <trkpt lat="43.90613" lon="5.353">
        <ele>296.7</ele>
        <time>2019-11-25T09:12:13Z</time>
      </trkpt>
      <trkpt lat="43.90616" lon="5.35287">
        <ele>298.63</ele>
        <time>2019-11-25T09:12:28Z</time>
      </trkpt>
      <trkpt lat="43.90617" lon="5.35273">
        <ele>300.07</ele>
        <time>2019-11-25T09:12:43Z</time>
      </trkpt>
      <trkpt lat="43.90613" lon="5.35261">
        <ele>300.07</ele>
        <time>2019-11-25T09:13:01Z</time>
      </trkpt>
      <trkpt lat="43.90617" lon="5.35243">
        <ele>301.51</ele>
        <time>2019-11-25T09:13:15Z</time>
      </trkpt>
      <trkpt lat="43.90617" lon="5.35226">
        <ele>303.43</ele>
        <time>2019-11-25T09:13:31Z</time>
      </trkpt>
      <trkpt lat="43.90612" lon="5.35206">
        <ele>304.39</ele>
        <time>2019-11-25T09:13:48Z</time>
      </trkpt>
      <trkpt lat="43.9062" lon="5.35195">
        <ele>306.8</ele>
        <time>2019-11-25T09:14:03Z</time>
      </trkpt>
      <trkpt lat="43.90628" lon="5.35176">
        <ele>308.72</ele>
        <time>2019-11-25T09:14:19Z</time>
      </trkpt>
      <trkpt lat="43.90633" lon="5.35163">
        <ele>310.16</ele>
        <time>2019-11-25T09:14:33Z</time>
      </trkpt>
      <trkpt lat="43.90637" lon="5.35145">
        <ele>311.6</ele>
        <time>2019-11-25T09:14:49Z</time>
      </trkpt>
      <trkpt lat="43.90641" lon="5.35139">
        <ele>313.05</ele>
        <time>2019-11-25T09:15:02Z</time>
      </trkpt>
      <trkpt lat="43.90642" lon="5.3514">
        <ele>313.05</ele>
        <time>2019-11-25T09:15:11Z</time>
      </trkpt>
      <trkpt lat="43.90645" lon="5.35138">
        <ele>313.05</ele>
        <time>2019-11-25T09:15:22Z</time>
      </trkpt>
      <trkpt lat="43.90643" lon="5.35125">
        <ele>313.05</ele>
        <time>2019-11-25T09:15:46Z</time>
      </trkpt>
      <trkpt lat="43.9065" lon="5.35108">
        <ele>312.57</ele>
        <time>2019-11-25T09:16:00Z</time>
      </trkpt>
      <trkpt lat="43.90656" lon="5.35089">
        <ele>312.57</ele>
        <time>2019-11-25T09:16:18Z</time>
      </trkpt>
      <trkpt lat="43.90659" lon="5.35075">
        <ele>312.57</ele>
        <time>2019-11-25T09:16:32Z</time>
      </trkpt>
      <trkpt lat="43.90662" lon="5.35061">
        <ele>311.12</ele>
        <time>2019-11-25T09:16:43Z</time>
      </trkpt>
      <trkpt lat="43.90671" lon="5.35042">
        <ele>311.12</ele>
        <time>2019-11-25T09:16:59Z</time>
      </trkpt>
      <trkpt lat="43.90681" lon="5.35029">
        <ele>311.12</ele>
        <time>2019-11-25T09:17:13Z</time>
      </trkpt>
      <trkpt lat="43.90684" lon="5.35011">
        <ele>310.64</ele>
        <time>2019-11-25T09:17:28Z</time>
      </trkpt>
      <trkpt lat="43.90683" lon="5.35008">
        <ele>312.09</ele>
        <time>2019-11-25T09:17:32Z</time>
      </trkpt>
      <trkpt lat="43.90681" lon="5.35007">
        <ele>310.64</ele>
        <time>2019-11-25T09:17:34Z</time>
      </trkpt>
      <trkpt lat="43.90675" lon="5.34999">
        <ele>310.64</ele>
        <time>2019-11-25T09:17:43Z</time>
      </trkpt>
      <trkpt lat="43.90672" lon="5.34988">
        <ele>311.6</ele>
        <time>2019-11-25T09:17:48Z</time>
      </trkpt>
      <trkpt lat="43.90671" lon="5.34967">
        <ele>311.6</ele>
        <time>2019-11-25T09:18:02Z</time>
      </trkpt>
      <trkpt lat="43.90672" lon="5.34954">
        <ele>312.57</ele>
        <time>2019-11-25T09:18:12Z</time>
      </trkpt>
      <trkpt lat="43.90672" lon="5.34949">
        <ele>312.57</ele>
        <time>2019-11-25T09:18:16Z</time>
      </trkpt>
      <trkpt lat="43.90673" lon="5.34945">
        <ele>313.05</ele>
        <time>2019-11-25T09:18:19Z</time>
      </trkpt>
      <trkpt lat="43.90674" lon="5.34926">
        <ele>313.53</ele>
        <time>2019-11-25T09:18:35Z</time>
      </trkpt>
      <trkpt lat="43.90679" lon="5.34908">
        <ele>313.53</ele>
        <time>2019-11-25T09:18:50Z</time>
      </trkpt>
      <trkpt lat="43.90689" lon="5.34893">
        <ele>314.01</ele>
        <time>2019-11-25T09:19:07Z</time>
      </trkpt>
      <trkpt lat="43.90695" lon="5.3489">
        <ele>314.01</ele>
        <time>2019-11-25T09:19:14Z</time>
      </trkpt>
      <trkpt lat="43.90703" lon="5.3489">
        <ele>312.57</ele>
        <time>2019-11-25T09:19:24Z</time>
      </trkpt>
      <trkpt lat="43.90716" lon="5.34884">
        <ele>311.6</ele>
        <time>2019-11-25T09:19:38Z</time>
      </trkpt>
      <trkpt lat="43.90719" lon="5.3488">
        <ele>311.6</ele>
        <time>2019-11-25T09:19:41Z</time>
      </trkpt>
      <trkpt lat="43.90725" lon="5.34866">
        <ele>310.16</ele>
        <time>2019-11-25T09:19:56Z</time>
      </trkpt>
      <trkpt lat="43.90738" lon="5.34856">
        <ele>309.2</ele>
        <time>2019-11-25T09:20:12Z</time>
      </trkpt>
      <trkpt lat="43.90753" lon="5.34843">
        <ele>309.2</ele>
        <time>2019-11-25T09:20:29Z</time>
      </trkpt>
      <trkpt lat="43.90758" lon="5.34839">
        <ele>308.72</ele>
        <time>2019-11-25T09:20:45Z</time>
      </trkpt>
      <trkpt lat="43.90754" lon="5.34842">
        <ele>308.72</ele>
        <time>2019-11-25T09:21:05Z</time>
      </trkpt>
      <trkpt lat="43.90754" lon="5.34838">
        <ele>309.2</ele>
        <time>2019-11-25T09:21:28Z</time>
      </trkpt>
      <trkpt lat="43.90754" lon="5.34839">
        <ele>309.2</ele>
        <time>2019-11-25T09:21:46Z</time>
      </trkpt>
      <trkpt lat="43.90747" lon="5.34848">
        <ele>309.2</ele>
        <time>2019-11-25T09:22:02Z</time>
      </trkpt>
      <trkpt lat="43.90733" lon="5.34856">
        <ele>308.72</ele>
        <time>2019-11-25T09:22:20Z</time>
      </trkpt>
      <trkpt lat="43.90723" lon="5.34845">
        <ele>308.24</ele>
        <time>2019-11-25T09:22:37Z</time>
      </trkpt>
      <trkpt lat="43.90723" lon="5.34835">
        <ele>307.76</ele>
        <time>2019-11-25T09:22:51Z</time>
      </trkpt>
      <trkpt lat="43.90732" lon="5.34829">
        <ele>306.8</ele>
        <time>2019-11-25T09:23:05Z</time>
      </trkpt>
      <trkpt lat="43.90744" lon="5.34819">
        <ele>306.8</ele>
        <time>2019-11-25T09:23:18Z</time>
      </trkpt>
      <trkpt lat="43.90752" lon="5.34814">
        <ele>306.32</ele>
        <time>2019-11-25T09:23:36Z</time>
      </trkpt>
      <trkpt lat="43.90759" lon="5.34807">
        <ele>304.88</ele>
        <time>2019-11-25T09:23:50Z</time>
      </trkpt>
      <trkpt lat="43.90763" lon="5.34804">
        <ele>306.32</ele>
        <time>2019-11-25T09:23:57Z</time>
      </trkpt>
      <trkpt lat="43.90772" lon="5.348">
        <ele>307.76</ele>
        <time>2019-11-25T09:24:10Z</time>
      </trkpt>
      <trkpt lat="43.90786" lon="5.34797">
        <ele>308.72</ele>
        <time>2019-11-25T09:24:27Z</time>
      </trkpt>
      <trkpt lat="43.90798" lon="5.34799">
        <ele>309.68</ele>
        <time>2019-11-25T09:24:42Z</time>
      </trkpt>
      <trkpt lat="43.90813" lon="5.34796">
        <ele>311.12</ele>
        <time>2019-11-25T09:24:59Z</time>
      </trkpt>
      <trkpt lat="43.90824" lon="5.3479">
        <ele>312.09</ele>
        <time>2019-11-25T09:25:13Z</time>
      </trkpt>
      <trkpt lat="43.90839" lon="5.34792">
        <ele>313.05</ele>
        <time>2019-11-25T09:25:28Z</time>
      </trkpt>
      <trkpt lat="43.9085" lon="5.34792">
        <ele>314.49</ele>
        <time>2019-11-25T09:25:43Z</time>
      </trkpt>
      <trkpt lat="43.90856" lon="5.34779">
        <ele>315.93</ele>
        <time>2019-11-25T09:25:57Z</time>
      </trkpt>
      <trkpt lat="43.9086" lon="5.34777">
        <ele>315.93</ele>
        <time>2019-11-25T09:26:10Z</time>
      </trkpt>
      <trkpt lat="43.9086" lon="5.34777">
        <ele>314.97</ele>
        <time>2019-11-25T09:26:24Z</time>
      </trkpt>
      <trkpt lat="43.90855" lon="5.34774">
        <ele>314.97</ele>
        <time>2019-11-25T09:26:50Z</time>
      </trkpt>
      <trkpt lat="43.90856" lon="5.3477">
        <ele>314.49</ele>
        <time>2019-11-25T09:27:29Z</time>
      </trkpt>
      <trkpt lat="43.9086" lon="5.34774">
        <ele>314.49</ele>
        <time>2019-11-25T09:28:00Z</time>
      </trkpt>
      <trkpt lat="43.9086" lon="5.34775">
        <ele>315.93</ele>
        <time>2019-11-25T09:28:15Z</time>
      </trkpt>
      <trkpt lat="43.9086" lon="5.34777">
        <ele>316.89</ele>
        <time>2019-11-25T09:28:40Z</time>
      </trkpt>
      <trkpt lat="43.90862" lon="5.34776">
        <ele>316.89</ele>
        <time>2019-11-25T09:28:56Z</time>
      </trkpt>
      <trkpt lat="43.90866" lon="5.34775">
        <ele>316.89</ele>
        <time>2019-11-25T09:29:20Z</time>
      </trkpt>
      <trkpt lat="43.90872" lon="5.34774">
        <ele>317.85</ele>
        <time>2019-11-25T09:29:38Z</time>
      </trkpt>
      <trkpt lat="43.90875" lon="5.34767">
        <ele>319.3</ele>
        <time>2019-11-25T09:29:51Z</time>
      </trkpt>
      <trkpt lat="43.90872" lon="5.34757">
        <ele>319.78</ele>
        <time>2019-11-25T09:30:05Z</time>
      </trkpt>
      <trkpt lat="43.90872" lon="5.34741">
        <ele>320.26</ele>
        <time>2019-11-25T09:30:22Z</time>
      </trkpt>
      <trkpt lat="43.90869" lon="5.34735">
        <ele>320.74</ele>
        <time>2019-11-25T09:30:39Z</time>
      </trkpt>
      <trkpt lat="43.90872" lon="5.34724">
        <ele>320.74</ele>
        <time>2019-11-25T09:30:51Z</time>
      </trkpt>
      <trkpt lat="43.90877" lon="5.34714">
        <ele>321.7</ele>
        <time>2019-11-25T09:31:05Z</time>
      </trkpt>
      <trkpt lat="43.90886" lon="5.34712">
        <ele>323.62</ele>
        <time>2019-11-25T09:31:20Z</time>
      </trkpt>
      <trkpt lat="43.90896" lon="5.34702">
        <ele>325.06</ele>
        <time>2019-11-25T09:31:35Z</time>
      </trkpt>
      <trkpt lat="43.90907" lon="5.34691">
        <ele>327.47</ele>
        <time>2019-11-25T09:31:51Z</time>
      </trkpt>
      <trkpt lat="43.90915" lon="5.34684">
        <ele>329.87</ele>
        <time>2019-11-25T09:32:08Z</time>
      </trkpt>
      <trkpt lat="43.90922" lon="5.3468">
        <ele>330.83</ele>
        <time>2019-11-25T09:32:23Z</time>
      </trkpt>
      <trkpt lat="43.90921" lon="5.3468">
        <ele>330.83</ele>
        <time>2019-11-25T09:32:45Z</time>
      </trkpt>
      <trkpt lat="43.90922" lon="5.34681">
        <ele>330.83</ele>
        <time>2019-11-25T09:33:09Z</time>
      </trkpt>
      <trkpt lat="43.90923" lon="5.34676">
        <ele>331.31</ele>
        <time>2019-11-25T09:33:28Z</time>
      </trkpt>
      <trkpt lat="43.90932" lon="5.3467">
        <ele>331.31</ele>
        <time>2019-11-25T09:33:42Z</time>
      </trkpt>
      <trkpt lat="43.90945" lon="5.34662">
        <ele>331.31</ele>
        <time>2019-11-25T09:33:58Z</time>
      </trkpt>
      <trkpt lat="43.90959" lon="5.34655">
        <ele>331.31</ele>
        <time>2019-11-25T09:34:15Z</time>
      </trkpt>
      <trkpt lat="43.90966" lon="5.34651">
        <ele>331.31</ele>
        <time>2019-11-25T09:34:30Z</time>
      </trkpt>
      <trkpt lat="43.90977" lon="5.34654">
        <ele>331.31</ele>
        <time>2019-11-25T09:34:48Z</time>
      </trkpt>
      <trkpt lat="43.90987" lon="5.34656">
        <ele>331.31</ele>
        <time>2019-11-25T09:35:05Z</time>
      </trkpt>
      <trkpt lat="43.90993" lon="5.3466">
        <ele>332.27</ele>
        <time>2019-11-25T09:35:21Z</time>
      </trkpt>
      <trkpt lat="43.91" lon="5.34658">
        <ele>329.87</ele>
        <time>2019-11-25T09:35:37Z</time>
      </trkpt>
      <trkpt lat="43.91006" lon="5.34663">
        <ele>328.43</ele>
        <time>2019-11-25T09:35:52Z</time>
      </trkpt>
      <trkpt lat="43.91011" lon="5.34674">
        <ele>326.99</ele>
        <time>2019-11-25T09:36:09Z</time>
      </trkpt>
      <trkpt lat="43.91018" lon="5.34683">
        <ele>327.47</ele>
        <time>2019-11-25T09:36:21Z</time>
      </trkpt>
      <trkpt lat="43.9103" lon="5.34687">
        <ele>327.47</ele>
        <time>2019-11-25T09:36:37Z</time>
      </trkpt>
      <trkpt lat="43.91035" lon="5.34689">
        <ele>325.06</ele>
        <time>2019-11-25T09:36:53Z</time>
      </trkpt>
      <trkpt lat="43.91036" lon="5.34683">
        <ele>323.62</ele>
        <time>2019-11-25T09:37:06Z</time>
      </trkpt>
      <trkpt lat="43.91041" lon="5.34679">
        <ele>321.7</ele>
        <time>2019-11-25T09:37:23Z</time>
      </trkpt>
      <trkpt lat="43.91045" lon="5.3468">
        <ele>319.3</ele>
        <time>2019-11-25T09:37:41Z</time>
      </trkpt>
      <trkpt lat="43.9105" lon="5.34682">
        <ele>317.37</ele>
        <time>2019-11-25T09:37:56Z</time>
      </trkpt>
      <trkpt lat="43.91052" lon="5.34681">
        <ele>315.93</ele>
        <time>2019-11-25T09:38:12Z</time>
      </trkpt>
      <trkpt lat="43.91051" lon="5.34675">
        <ele>313.53</ele>
        <time>2019-11-25T09:38:29Z</time>
      </trkpt>
      <trkpt lat="43.91046" lon="5.34663">
        <ele>311.12</ele>
        <time>2019-11-25T09:38:45Z</time>
      </trkpt>
      <trkpt lat="43.91041" lon="5.34655">
        <ele>311.12</ele>
        <time>2019-11-25T09:39:01Z</time>
      </trkpt>
      <trkpt lat="43.91033" lon="5.34648">
        <ele>309.68</ele>
        <time>2019-11-25T09:39:19Z</time>
      </trkpt>
      <trkpt lat="43.91024" lon="5.3464">
        <ele>308.24</ele>
        <time>2019-11-25T09:39:37Z</time>
      </trkpt>
      <trkpt lat="43.91023" lon="5.3464">
        <ele>308.24</ele>
        <time>2019-11-25T09:39:56Z</time>
      </trkpt>
      <trkpt lat="43.91019" lon="5.34643">
        <ele>307.28</ele>
        <time>2019-11-25T09:40:14Z</time>
      </trkpt>
      <trkpt lat="43.91015" lon="5.34643">
        <ele>304.88</ele>
        <time>2019-11-25T09:40:28Z</time>
      </trkpt>
      <trkpt lat="43.91009" lon="5.34644">
        <ele>303.43</ele>
        <time>2019-11-25T09:40:43Z</time>
      </trkpt>
      <trkpt lat="43.91004" lon="5.34643">
        <ele>302.95</ele>
        <time>2019-11-25T09:41:05Z</time>
      </trkpt>
      <trkpt lat="43.91002" lon="5.34645">
        <ele>301.99</ele>
        <time>2019-11-25T09:41:19Z</time>
      </trkpt>
      <trkpt lat="43.91005" lon="5.34648">
        <ele>301.99</ele>
        <time>2019-11-25T09:41:44Z</time>
      </trkpt>
      <trkpt lat="43.90999" lon="5.34644">
        <ele>300.55</ele>
        <time>2019-11-25T09:42:00Z</time>
      </trkpt>
      <trkpt lat="43.90993" lon="5.34643">
        <ele>298.63</ele>
        <time>2019-11-25T09:42:13Z</time>
      </trkpt>
      <trkpt lat="43.90983" lon="5.34639">
        <ele>297.67</ele>
        <time>2019-11-25T09:42:27Z</time>
      </trkpt>
      <trkpt lat="43.9098" lon="5.34636">
        <ele>297.18</ele>
        <time>2019-11-25T09:42:42Z</time>
      </trkpt>
      <trkpt lat="43.90978" lon="5.34641">
        <ele>296.7</ele>
        <time>2019-11-25T09:43:01Z</time>
      </trkpt>
      <trkpt lat="43.90977" lon="5.34644">
        <ele>296.22</ele>
        <time>2019-11-25T09:43:17Z</time>
      </trkpt>
      <trkpt lat="43.90976" lon="5.34647">
        <ele>296.22</ele>
        <time>2019-11-25T09:43:34Z</time>
      </trkpt>
      <trkpt lat="43.9098" lon="5.34642">
        <ele>295.74</ele>
        <time>2019-11-25T09:43:56Z</time>
      </trkpt>
      <trkpt lat="43.90989" lon="5.34632">
        <ele>295.26</ele>
        <time>2019-11-25T09:44:17Z</time>
      </trkpt>
      <trkpt lat="43.90986" lon="5.34623">
        <ele>295.26</ele>
        <time>2019-11-25T09:44:34Z</time>
      </trkpt>
      <trkpt lat="43.9098" lon="5.34622">
        <ele>296.7</ele>
        <time>2019-11-25T09:44:47Z</time>
      </trkpt>
      <trkpt lat="43.90977" lon="5.34612">
        <ele>296.7</ele>
        <time>2019-11-25T09:44:59Z</time>
      </trkpt>
      <trkpt lat="43.90976" lon="5.34606">
        <ele>296.7</ele>
        <time>2019-11-25T09:45:13Z</time>
      </trkpt>
      <trkpt lat="43.90977" lon="5.34606">
        <ele>297.18</ele>
        <time>2019-11-25T09:45:31Z</time>
      </trkpt>
      <trkpt lat="43.90977" lon="5.34602">
        <ele>297.18</ele>
        <time>2019-11-25T09:45:52Z</time>
      </trkpt>
      <trkpt lat="43.90974" lon="5.34587">
        <ele>297.67</ele>
        <time>2019-11-25T09:46:07Z</time>
      </trkpt>
      <trkpt lat="43.90971" lon="5.34571">
        <ele>298.63</ele>
        <time>2019-11-25T09:46:21Z</time>
      </trkpt>
      <trkpt lat="43.9097" lon="5.34557">
        <ele>299.11</ele>
        <time>2019-11-25T09:46:34Z</time>
      </trkpt>
      <trkpt lat="43.90968" lon="5.34541">
        <ele>299.11</ele>
        <time>2019-11-25T09:46:48Z</time>
      </trkpt>
      <trkpt lat="43.90967" lon="5.34532">
        <ele>297.67</ele>
        <time>2019-11-25T09:46:56Z</time>
      </trkpt>
      <trkpt lat="43.90963" lon="5.34513">
        <ele>295.74</ele>
        <time>2019-11-25T09:47:11Z</time>
      </trkpt>
      <trkpt lat="43.9096" lon="5.34499">
        <ele>294.3</ele>
        <time>2019-11-25T09:47:24Z</time>
      </trkpt>
      <trkpt lat="43.90954" lon="5.34484">
        <ele>292.38</ele>
        <time>2019-11-25T09:47:40Z</time>
      </trkpt>
      <trkpt lat="43.90952" lon="5.34472">
        <ele>289.97</ele>
        <time>2019-11-25T09:47:55Z</time>
      </trkpt>
      <trkpt lat="43.90951" lon="5.34457">
        <ele>289.01</ele>
        <time>2019-11-25T09:48:10Z</time>
      </trkpt>
      <trkpt lat="43.90952" lon="5.34442">
        <ele>288.53</ele>
        <time>2019-11-25T09:48:23Z</time>
      </trkpt>
      <trkpt lat="43.90943" lon="5.34434">
        <ele>287.57</ele>
        <time>2019-11-25T09:48:36Z</time>
      </trkpt>
      <trkpt lat="43.90931" lon="5.34428">
        <ele>287.57</ele>
        <time>2019-11-25T09:48:50Z</time>
      </trkpt>
      <trkpt lat="43.90917" lon="5.34421">
        <ele>287.57</ele>
        <time>2019-11-25T09:49:06Z</time>
      </trkpt>
      <trkpt lat="43.90906" lon="5.34432">
        <ele>286.61</ele>
        <time>2019-11-25T09:49:22Z</time>
      </trkpt>
      <trkpt lat="43.90895" lon="5.34447">
        <ele>286.61</ele>
        <time>2019-11-25T09:49:39Z</time>
      </trkpt>
      <trkpt lat="43.90883" lon="5.34462">
        <ele>287.57</ele>
        <time>2019-11-25T09:49:57Z</time>
      </trkpt>
      <trkpt lat="43.90869" lon="5.34479">
        <ele>288.05</ele>
        <time>2019-11-25T09:50:16Z</time>
      </trkpt>
      <trkpt lat="43.90858" lon="5.34492">
        <ele>288.05</ele>
        <time>2019-11-25T09:50:31Z</time>
      </trkpt>
      <trkpt lat="43.90846" lon="5.34509">
        <ele>288.05</ele>
        <time>2019-11-25T09:50:49Z</time>
      </trkpt>
      <trkpt lat="43.90829" lon="5.34529">
        <ele>288.53</ele>
        <time>2019-11-25T09:51:08Z</time>
      </trkpt>
      <trkpt lat="43.90818" lon="5.34547">
        <ele>288.05</ele>
        <time>2019-11-25T09:51:26Z</time>
      </trkpt>
      <trkpt lat="43.90821" lon="5.34561">
        <ele>288.53</ele>
        <time>2019-11-25T09:51:40Z</time>
      </trkpt>
      <trkpt lat="43.90823" lon="5.34569">
        <ele>288.53</ele>
        <time>2019-11-25T09:51:55Z</time>
      </trkpt>
      <trkpt lat="43.90824" lon="5.34569">
        <ele>288.53</ele>
        <time>2019-11-25T09:52:13Z</time>
      </trkpt>
      <trkpt lat="43.90822" lon="5.34562">
        <ele>288.53</ele>
        <time>2019-11-25T09:52:30Z</time>
      </trkpt>
      <trkpt lat="43.90824" lon="5.34557">
        <ele>289.01</ele>
        <time>2019-11-25T09:52:45Z</time>
      </trkpt>
      <trkpt lat="43.90823" lon="5.34559">
        <ele>289.01</ele>
        <time>2019-11-25T09:53:03Z</time>
      </trkpt>
      <trkpt lat="43.90823" lon="5.34556">
        <ele>289.01</ele>
        <time>2019-11-25T09:53:18Z</time>
      </trkpt>
      <trkpt lat="43.90826" lon="5.34556">
        <ele>289.01</ele>
        <time>2019-11-25T09:53:45Z</time>
      </trkpt>
      <trkpt lat="43.90824" lon="5.34556">
        <ele>287.57</ele>
        <time>2019-11-25T09:54:02Z</time>
      </trkpt>
      <trkpt lat="43.90822" lon="5.34557">
        <ele>288.05</ele>
        <time>2019-11-25T09:54:37Z</time>
      </trkpt>
      <trkpt lat="43.90821" lon="5.34554">
        <ele>288.05</ele>
        <time>2019-11-25T09:55:18Z</time>
      </trkpt>
      <trkpt lat="43.90822" lon="5.34552">
        <ele>288.05</ele>
        <time>2019-11-25T09:55:59Z</time>
      </trkpt>
      <trkpt lat="43.90823" lon="5.3455">
        <ele>288.05</ele>
        <time>2019-11-25T09:56:43Z</time>
      </trkpt>
      <trkpt lat="43.90828" lon="5.3455">
        <ele>288.05</ele>
        <time>2019-11-25T09:57:30Z</time>
      </trkpt>
      <trkpt lat="43.90822" lon="5.34555">
        <ele>288.05</ele>
        <time>2019-11-25T09:58:15Z</time>
      </trkpt>
      <trkpt lat="43.9082" lon="5.34555">
        <ele>288.05</ele>
        <time>2019-11-25T09:59:02Z</time>
      </trkpt>
      <trkpt lat="43.90823" lon="5.34553">
        <ele>288.53</ele>
        <time>2019-11-25T09:59:52Z</time>
      </trkpt>
      <trkpt lat="43.9082" lon="5.34555">
        <ele>289.49</ele>
        <time>2019-11-25T10:00:19Z</time>
      </trkpt>
      <trkpt lat="43.90822" lon="5.34559">
        <ele>289.49</ele>
        <time>2019-11-25T10:00:38Z</time>
      </trkpt>
      <trkpt lat="43.90822" lon="5.34557">
        <ele>289.49</ele>
        <time>2019-11-25T10:00:45Z</time>
      </trkpt>
      <trkpt lat="43.90823" lon="5.34555">
        <ele>291.42</ele>
        <time>2019-11-25T10:00:47Z</time>
      </trkpt>
      <trkpt lat="43.90823" lon="5.34555">
        <ele>287.57</ele>
        <time>2019-11-25T10:00:48Z</time>
      </trkpt>
      <trkpt lat="43.90822" lon="5.34556">
        <ele>292.38</ele>
        <time>2019-11-25T10:00:50Z</time>
      </trkpt>
      <trkpt lat="43.90821" lon="5.34554">
        <ele>289.97</ele>
        <time>2019-11-25T10:01:16Z</time>
      </trkpt>
      <trkpt lat="43.90822" lon="5.34551">
        <ele>289.49</ele>
        <time>2019-11-25T10:01:37Z</time>
      </trkpt>
      <trkpt lat="43.90822" lon="5.34551">
        <ele>289.97</ele>
        <time>2019-11-25T10:02:00Z</time>
      </trkpt>
      <trkpt lat="43.90821" lon="5.34556">
        <ele>289.97</ele>
        <time>2019-11-25T10:02:22Z</time>
      </trkpt>
      <trkpt lat="43.90818" lon="5.34571">
        <ele>289.97</ele>
        <time>2019-11-25T10:02:37Z</time>
      </trkpt>
      <trkpt lat="43.90819" lon="5.34576">
        <ele>289.49</ele>
        <time>2019-11-25T10:02:55Z</time>
      </trkpt>
      <trkpt lat="43.90821" lon="5.34575">
        <ele>289.49</ele>
        <time>2019-11-25T10:03:18Z</time>
      </trkpt>
      <trkpt lat="43.90817" lon="5.3457">
        <ele>289.49</ele>
        <time>2019-11-25T10:03:34Z</time>
      </trkpt>
      <trkpt lat="43.90814" lon="5.34571">
        <ele>289.49</ele>
        <time>2019-11-25T10:03:48Z</time>
      </trkpt>
      <trkpt lat="43.90817" lon="5.34573">
        <ele>289.49</ele>
        <time>2019-11-25T10:04:15Z</time>
      </trkpt>
      <trkpt lat="43.90818" lon="5.34571">
        <ele>289.49</ele>
        <time>2019-11-25T10:04:39Z</time>
      </trkpt>
      <trkpt lat="43.90814" lon="5.34571">
        <ele>289.49</ele>
        <time>2019-11-25T10:04:53Z</time>
      </trkpt>
      <trkpt lat="43.9081" lon="5.3457">
        <ele>289.49</ele>
        <time>2019-11-25T10:05:10Z</time>
      </trkpt>
      <trkpt lat="43.90802" lon="5.3458">
        <ele>289.49</ele>
        <time>2019-11-25T10:05:26Z</time>
      </trkpt>
      <trkpt lat="43.90789" lon="5.34582">
        <ele>289.01</ele>
        <time>2019-11-25T10:05:42Z</time>
      </trkpt>
      <trkpt lat="43.90782" lon="5.34586">
        <ele>289.01</ele>
        <time>2019-11-25T10:05:56Z</time>
      </trkpt>
      <trkpt lat="43.90773" lon="5.34596">
        <ele>289.01</ele>
        <time>2019-11-25T10:06:12Z</time>
      </trkpt>
      <trkpt lat="43.90764" lon="5.34609">
        <ele>289.01</ele>
        <time>2019-11-25T10:06:30Z</time>
      </trkpt>
      <trkpt lat="43.90753" lon="5.34623">
        <ele>289.97</ele>
        <time>2019-11-25T10:06:47Z</time>
      </trkpt>
      <trkpt lat="43.90743" lon="5.34634">
        <ele>289.97</ele>
        <time>2019-11-25T10:07:02Z</time>
      </trkpt>
      <trkpt lat="43.90733" lon="5.34648">
        <ele>289.97</ele>
        <time>2019-11-25T10:07:17Z</time>
      </trkpt>
      <trkpt lat="43.90718" lon="5.34668">
        <ele>289.49</ele>
        <time>2019-11-25T10:07:36Z</time>
      </trkpt>
      <trkpt lat="43.90703" lon="5.34688">
        <ele>289.97</ele>
        <time>2019-11-25T10:07:55Z</time>
      </trkpt>
      <trkpt lat="43.90695" lon="5.347">
        <ele>289.49</ele>
        <time>2019-11-25T10:08:11Z</time>
      </trkpt>
      <trkpt lat="43.90681" lon="5.34706">
        <ele>289.97</ele>
        <time>2019-11-25T10:08:27Z</time>
      </trkpt>
      <trkpt lat="43.90669" lon="5.34713">
        <ele>290.94</ele>
        <time>2019-11-25T10:08:43Z</time>
      </trkpt>
      <trkpt lat="43.9065" lon="5.3472">
        <ele>290.46</ele>
        <time>2019-11-25T10:09:01Z</time>
      </trkpt>
      <trkpt lat="43.90638" lon="5.34725">
        <ele>289.01</ele>
        <time>2019-11-25T10:09:19Z</time>
      </trkpt>
      <trkpt lat="43.90628" lon="5.34731">
        <ele>289.97</ele>
        <time>2019-11-25T10:09:31Z</time>
      </trkpt>
      <trkpt lat="43.90611" lon="5.3474">
        <ele>289.97</ele>
        <time>2019-11-25T10:09:48Z</time>
      </trkpt>
      <trkpt lat="43.9061" lon="5.34742">
        <ele>289.97</ele>
        <time>2019-11-25T10:09:50Z</time>
      </trkpt>
      <trkpt lat="43.90604" lon="5.34746">
        <ele>289.97</ele>
        <time>2019-11-25T10:10:06Z</time>
      </trkpt>
      <trkpt lat="43.90594" lon="5.34762">
        <ele>289.97</ele>
        <time>2019-11-25T10:10:23Z</time>
      </trkpt>
      <trkpt lat="43.90593" lon="5.34784">
        <ele>291.42</ele>
        <time>2019-11-25T10:10:41Z</time>
      </trkpt>
      <trkpt lat="43.90599" lon="5.34798">
        <ele>292.86</ele>
        <time>2019-11-25T10:10:58Z</time>
      </trkpt>
      <trkpt lat="43.90604" lon="5.34808">
        <ele>295.26</ele>
        <time>2019-11-25T10:11:13Z</time>
      </trkpt>
      <trkpt lat="43.9061" lon="5.34821">
        <ele>295.74</ele>
        <time>2019-11-25T10:11:28Z</time>
      </trkpt>
      <trkpt lat="43.90611" lon="5.34829">
        <ele>295.74</ele>
        <time>2019-11-25T10:11:43Z</time>
      </trkpt>
      <trkpt lat="43.90613" lon="5.34834">
        <ele>297.18</ele>
        <time>2019-11-25T10:11:59Z</time>
      </trkpt>
      <trkpt lat="43.90612" lon="5.34845">
        <ele>299.11</ele>
        <time>2019-11-25T10:12:15Z</time>
      </trkpt>
      <trkpt lat="43.90617" lon="5.34858">
        <ele>300.07</ele>
        <time>2019-11-25T10:12:30Z</time>
      </trkpt>
      <trkpt lat="43.90622" lon="5.34864">
        <ele>301.99</ele>
        <time>2019-11-25T10:12:43Z</time>
      </trkpt>
      <trkpt lat="43.90635" lon="5.34855">
        <ele>303.43</ele>
        <time>2019-11-25T10:12:59Z</time>
      </trkpt>
      <trkpt lat="43.90645" lon="5.34847">
        <ele>303.43</ele>
        <time>2019-11-25T10:13:14Z</time>
      </trkpt>
      <trkpt lat="43.90651" lon="5.34844">
        <ele>302.47</ele>
        <time>2019-11-25T10:13:21Z</time>
      </trkpt>
      <trkpt lat="43.90659" lon="5.34838">
        <ele>300.07</ele>
        <time>2019-11-25T10:13:35Z</time>
      </trkpt>
      <trkpt lat="43.90671" lon="5.34832">
        <ele>298.15</ele>
        <time>2019-11-25T10:13:51Z</time>
      </trkpt>
      <trkpt lat="43.90684" lon="5.34833">
        <ele>298.15</ele>
        <time>2019-11-25T10:14:07Z</time>
      </trkpt>
      <trkpt lat="43.90691" lon="5.34829">
        <ele>298.15</ele>
        <time>2019-11-25T10:14:20Z</time>
      </trkpt>
      <trkpt lat="43.90701" lon="5.34832">
        <ele>298.15</ele>
        <time>2019-11-25T10:14:35Z</time>
      </trkpt>
      <trkpt lat="43.90713" lon="5.34829">
        <ele>300.55</ele>
        <time>2019-11-25T10:14:51Z</time>
      </trkpt>
      <trkpt lat="43.90723" lon="5.34845">
        <ele>300.55</ele>
        <time>2019-11-25T10:15:05Z</time>
      </trkpt>
      <trkpt lat="43.90731" lon="5.34859">
        <ele>301.03</ele>
        <time>2019-11-25T10:15:20Z</time>
      </trkpt>
      <trkpt lat="43.90744" lon="5.34856">
        <ele>301.03</ele>
        <time>2019-11-25T10:15:33Z</time>
      </trkpt>
      <trkpt lat="43.90758" lon="5.34845">
        <ele>300.55</ele>
        <time>2019-11-25T10:15:50Z</time>
      </trkpt>
      <trkpt lat="43.90772" lon="5.34839">
        <ele>301.03</ele>
        <time>2019-11-25T10:16:05Z</time>
      </trkpt>
      <trkpt lat="43.90785" lon="5.34837">
        <ele>302.47</ele>
        <time>2019-11-25T10:16:19Z</time>
      </trkpt>
      <trkpt lat="43.90799" lon="5.34832">
        <ele>302.47</ele>
        <time>2019-11-25T10:16:35Z</time>
      </trkpt>
      <trkpt lat="43.90803" lon="5.34828">
        <ele>302.47</ele>
        <time>2019-11-25T10:16:41Z</time>
      </trkpt>
      <trkpt lat="43.90805" lon="5.34827">
        <ele>304.88</ele>
        <time>2019-11-25T10:16:45Z</time>
      </trkpt>
      <trkpt lat="43.90815" lon="5.34818">
        <ele>302.95</ele>
        <time>2019-11-25T10:17:00Z</time>
      </trkpt>
      <trkpt lat="43.90826" lon="5.34823">
        <ele>304.39</ele>
        <time>2019-11-25T10:17:15Z</time>
      </trkpt>
      <trkpt lat="43.9084" lon="5.34831">
        <ele>304.88</ele>
        <time>2019-11-25T10:17:31Z</time>
      </trkpt>
      <trkpt lat="43.90853" lon="5.34836">
        <ele>305.84</ele>
        <time>2019-11-25T10:17:45Z</time>
      </trkpt>
      <trkpt lat="43.90858" lon="5.34842">
        <ele>309.2</ele>
        <time>2019-11-25T10:17:56Z</time>
      </trkpt>
      <trkpt lat="43.90858" lon="5.34843">
        <ele>305.84</ele>
        <time>2019-11-25T10:17:57Z</time>
      </trkpt>
      <trkpt lat="43.90858" lon="5.34843">
        <ele>301.99</ele>
        <time>2019-11-25T10:18:03Z</time>
      </trkpt>
      <trkpt lat="43.90858" lon="5.34843">
        <ele>305.36</ele>
        <time>2019-11-25T10:18:04Z</time>
      </trkpt>
      <trkpt lat="43.90858" lon="5.34844">
        <ele>310.64</ele>
        <time>2019-11-25T10:18:05Z</time>
      </trkpt>
      <trkpt lat="43.90859" lon="5.34844">
        <ele>305.84</ele>
        <time>2019-11-25T10:18:06Z</time>
      </trkpt>
      <trkpt lat="43.90869" lon="5.34848">
        <ele>305.84</ele>
        <time>2019-11-25T10:18:22Z</time>
      </trkpt>
      <trkpt lat="43.90875" lon="5.34857">
        <ele>305.84</ele>
        <time>2019-11-25T10:18:47Z</time>
      </trkpt>
      <trkpt lat="43.9088" lon="5.34867">
        <ele>304.39</ele>
        <time>2019-11-25T10:19:07Z</time>
      </trkpt>
      <trkpt lat="43.90881" lon="5.34872">
        <ele>302.47</ele>
        <time>2019-11-25T10:19:26Z</time>
      </trkpt>
      <trkpt lat="43.9088" lon="5.34882">
        <ele>300.55</ele>
        <time>2019-11-25T10:19:44Z</time>
      </trkpt>
      <trkpt lat="43.90884" lon="5.34898">
        <ele>299.11</ele>
        <time>2019-11-25T10:20:01Z</time>
      </trkpt>
      <trkpt lat="43.90887" lon="5.34917">
        <ele>299.11</ele>
        <time>2019-11-25T10:20:18Z</time>
      </trkpt>
      <trkpt lat="43.90893" lon="5.34935">
        <ele>298.63</ele>
        <time>2019-11-25T10:20:35Z</time>
      </trkpt>
      <trkpt lat="43.90902" lon="5.34951">
        <ele>297.67</ele>
        <time>2019-11-25T10:20:53Z</time>
      </trkpt>
      <trkpt lat="43.90907" lon="5.34966">
        <ele>296.7</ele>
        <time>2019-11-25T10:21:11Z</time>
      </trkpt>
      <trkpt lat="43.90912" lon="5.34985">
        <ele>296.22</ele>
        <time>2019-11-25T10:21:29Z</time>
      </trkpt>
      <trkpt lat="43.90901" lon="5.35002">
        <ele>296.22</ele>
        <time>2019-11-25T10:21:48Z</time>
      </trkpt>
      <trkpt lat="43.90891" lon="5.35017">
        <ele>295.74</ele>
        <time>2019-11-25T10:22:04Z</time>
      </trkpt>
      <trkpt lat="43.90878" lon="5.35043">
        <ele>294.3</ele>
        <time>2019-11-25T10:22:26Z</time>
      </trkpt>
      <trkpt lat="43.90872" lon="5.35064">
        <ele>293.82</ele>
        <time>2019-11-25T10:22:42Z</time>
      </trkpt>
      <trkpt lat="43.90868" lon="5.35078">
        <ele>292.86</ele>
        <time>2019-11-25T10:22:59Z</time>
      </trkpt>
      <trkpt lat="43.90862" lon="5.35089">
        <ele>291.9</ele>
        <time>2019-11-25T10:23:13Z</time>
      </trkpt>
      <trkpt lat="43.90862" lon="5.35097">
        <ele>291.42</ele>
        <time>2019-11-25T10:23:28Z</time>
      </trkpt>
      <trkpt lat="43.90863" lon="5.35113">
        <ele>291.42</ele>
        <time>2019-11-25T10:23:45Z</time>
      </trkpt>
      <trkpt lat="43.90867" lon="5.35131">
        <ele>290.94</ele>
        <time>2019-11-25T10:24:00Z</time>
      </trkpt>
      <trkpt lat="43.90873" lon="5.35143">
        <ele>289.97</ele>
        <time>2019-11-25T10:24:16Z</time>
      </trkpt>
      <trkpt lat="43.90881" lon="5.35156">
        <ele>289.97</ele>
        <time>2019-11-25T10:24:31Z</time>
      </trkpt>
      <trkpt lat="43.90885" lon="5.35159">
        <ele>289.97</ele>
        <time>2019-11-25T10:24:47Z</time>
      </trkpt>
      <trkpt lat="43.90894" lon="5.3518">
        <ele>292.86</ele>
        <time>2019-11-25T10:25:08Z</time>
      </trkpt>
      <trkpt lat="43.90897" lon="5.35189">
        <ele>293.34</ele>
        <time>2019-11-25T10:25:30Z</time>
      </trkpt>
      <trkpt lat="43.90898" lon="5.35197">
        <ele>291.9</ele>
        <time>2019-11-25T10:25:44Z</time>
      </trkpt>
      <trkpt lat="43.90902" lon="5.35208">
        <ele>290.46</ele>
        <time>2019-11-25T10:25:56Z</time>
      </trkpt>
      <trkpt lat="43.90904" lon="5.35212">
        <ele>289.49</ele>
        <time>2019-11-25T10:26:02Z</time>
      </trkpt>
      <trkpt lat="43.90914" lon="5.35212">
        <ele>289.01</ele>
        <time>2019-11-25T10:26:14Z</time>
      </trkpt>
      <trkpt lat="43.90922" lon="5.35197">
        <ele>288.53</ele>
        <time>2019-11-25T10:26:30Z</time>
      </trkpt>
      <trkpt lat="43.90924" lon="5.35189">
        <ele>288.53</ele>
        <time>2019-11-25T10:26:54Z</time>
      </trkpt>
      <trkpt lat="43.90918" lon="5.35188">
        <ele>287.09</ele>
        <time>2019-11-25T10:27:18Z</time>
      </trkpt>
      <trkpt lat="43.90923" lon="5.352">
        <ele>287.09</ele>
        <time>2019-11-25T10:27:43Z</time>
      </trkpt>
      <trkpt lat="43.90918" lon="5.35199">
        <ele>287.09</ele>
        <time>2019-11-25T10:28:09Z</time>
      </trkpt>
      <trkpt lat="43.90915" lon="5.35196">
        <ele>287.09</ele>
        <time>2019-11-25T10:28:23Z</time>
      </trkpt>
      <trkpt lat="43.90914" lon="5.35159">
        <ele>287.57</ele>
        <time>2019-11-25T10:29:22Z</time>
      </trkpt>
      <trkpt lat="43.90906" lon="5.35222">
        <ele>287.57</ele>
        <time>2019-11-25T10:29:39Z</time>
      </trkpt>
      <trkpt lat="43.90911" lon="5.35205">
        <ele>288.53</ele>
        <time>2019-11-25T10:29:53Z</time>
      </trkpt>
      <trkpt lat="43.90909" lon="5.35209">
        <ele>288.53</ele>
        <time>2019-11-25T10:30:16Z</time>
      </trkpt>
      <trkpt lat="43.90908" lon="5.35219">
        <ele>289.01</ele>
        <time>2019-11-25T10:30:37Z</time>
      </trkpt>
      <trkpt lat="43.90909" lon="5.35218">
        <ele>289.01</ele>
        <time>2019-11-25T10:30:53Z</time>
      </trkpt>
      <trkpt lat="43.90913" lon="5.35231">
        <ele>289.01</ele>
        <time>2019-11-25T10:31:06Z</time>
      </trkpt>
      <trkpt lat="43.90919" lon="5.35245">
        <ele>288.05</ele>
        <time>2019-11-25T10:31:20Z</time>
      </trkpt>
      <trkpt lat="43.9092" lon="5.35253">
        <ele>288.05</ele>
        <time>2019-11-25T10:31:34Z</time>
      </trkpt>
      <trkpt lat="43.90919" lon="5.35258">
        <ele>288.05</ele>
        <time>2019-11-25T10:31:45Z</time>
      </trkpt>
      <trkpt lat="43.90922" lon="5.35263">
        <ele>288.05</ele>
        <time>2019-11-25T10:32:00Z</time>
      </trkpt>
      <trkpt lat="43.90925" lon="5.35268">
        <ele>288.05</ele>
        <time>2019-11-25T10:32:13Z</time>
      </trkpt>
      <trkpt lat="43.90927" lon="5.35275">
        <ele>287.57</ele>
        <time>2019-11-25T10:32:26Z</time>
      </trkpt>
      <trkpt lat="43.90919" lon="5.35284">
        <ele>287.57</ele>
        <time>2019-11-25T10:32:41Z</time>
      </trkpt>
      <trkpt lat="43.90908" lon="5.35301">
        <ele>286.61</ele>
        <time>2019-11-25T10:33:00Z</time>
      </trkpt>
      <trkpt lat="43.90901" lon="5.35319">
        <ele>286.13</ele>
        <time>2019-11-25T10:33:18Z</time>
      </trkpt>
      <trkpt lat="43.90898" lon="5.35327">
        <ele>286.13</ele>
        <time>2019-11-25T10:33:32Z</time>
      </trkpt>
      <trkpt lat="43.90888" lon="5.35341">
        <ele>285.65</ele>
        <time>2019-11-25T10:33:45Z</time>
      </trkpt>
      <trkpt lat="43.90874" lon="5.35363">
        <ele>285.17</ele>
        <time>2019-11-25T10:34:04Z</time>
      </trkpt>
      <trkpt lat="43.90861" lon="5.35388">
        <ele>285.17</ele>
        <time>2019-11-25T10:34:27Z</time>
      </trkpt>
      <trkpt lat="43.90851" lon="5.35414">
        <ele>285.17</ele>
        <time>2019-11-25T10:34:47Z</time>
      </trkpt>
      <trkpt lat="43.90845" lon="5.35438">
        <ele>287.09</ele>
        <time>2019-11-25T10:35:07Z</time>
      </trkpt>
      <trkpt lat="43.90844" lon="5.35457">
        <ele>288.53</ele>
        <time>2019-11-25T10:35:24Z</time>
      </trkpt>
      <trkpt lat="43.90846" lon="5.35475">
        <ele>289.49</ele>
        <time>2019-11-25T10:35:40Z</time>
      </trkpt>
      <trkpt lat="43.90849" lon="5.35493">
        <ele>289.49</ele>
        <time>2019-11-25T10:35:56Z</time>
      </trkpt>
      <trkpt lat="43.90855" lon="5.35519">
        <ele>289.49</ele>
        <time>2019-11-25T10:36:18Z</time>
      </trkpt>
      <trkpt lat="43.90857" lon="5.35537">
        <ele>289.49</ele>
        <time>2019-11-25T10:36:34Z</time>
      </trkpt>
      <trkpt lat="43.90858" lon="5.35551">
        <ele>289.49</ele>
        <time>2019-11-25T10:36:44Z</time>
      </trkpt>
      <trkpt lat="43.90865" lon="5.35581">
        <ele>289.49</ele>
        <time>2019-11-25T10:37:06Z</time>
      </trkpt>
      <trkpt lat="43.9087" lon="5.35611">
        <ele>289.49</ele>
        <time>2019-11-25T10:37:27Z</time>
      </trkpt>
      <trkpt lat="43.90873" lon="5.3563">
        <ele>289.97</ele>
        <time>2019-11-25T10:37:41Z</time>
      </trkpt>
      <trkpt lat="43.90876" lon="5.35647">
        <ele>289.97</ele>
        <time>2019-11-25T10:37:57Z</time>
      </trkpt>
      <trkpt lat="43.90877" lon="5.35672">
        <ele>289.97</ele>
        <time>2019-11-25T10:38:16Z</time>
      </trkpt>
      <trkpt lat="43.90876" lon="5.35672">
        <ele>288.05</ele>
        <time>2019-11-25T10:38:29Z</time>
      </trkpt>
      <trkpt lat="43.90876" lon="5.35673">
        <ele>289.97</ele>
        <time>2019-11-25T10:38:31Z</time>
      </trkpt>
      <trkpt lat="43.90872" lon="5.35679">
        <ele>289.97</ele>
        <time>2019-11-25T10:38:44Z</time>
      </trkpt>
      <trkpt lat="43.90857" lon="5.35686">
        <ele>288.53</ele>
        <time>2019-11-25T10:39:05Z</time>
      </trkpt>
      <trkpt lat="43.90852" lon="5.35689">
        <ele>288.53</ele>
        <time>2019-11-25T10:39:16Z</time>
      </trkpt>
      <trkpt lat="43.90834" lon="5.35697">
        <ele>287.09</ele>
        <time>2019-11-25T10:39:37Z</time>
      </trkpt>
      <trkpt lat="43.90811" lon="5.35708">
        <ele>286.61</ele>
        <time>2019-11-25T10:40:01Z</time>
      </trkpt>
      <trkpt lat="43.90791" lon="5.35718">
        <ele>286.13</ele>
        <time>2019-11-25T10:40:22Z</time>
      </trkpt>
      <trkpt lat="43.90773" lon="5.35719">
        <ele>285.17</ele>
        <time>2019-11-25T10:40:43Z</time>
      </trkpt>
      <trkpt lat="43.90765" lon="5.35708">
        <ele>285.17</ele>
        <time>2019-11-25T10:41:00Z</time>
      </trkpt>
      <trkpt lat="43.90772" lon="5.3572">
        <ele>285.17</ele>
        <time>2019-11-25T10:41:16Z</time>
      </trkpt>
      <trkpt lat="43.90773" lon="5.35726">
        <ele>285.17</ele>
        <time>2019-11-25T10:41:21Z</time>
      </trkpt>
      <trkpt lat="43.90754" lon="5.35735">
        <ele>284.69</ele>
        <time>2019-11-25T10:41:39Z</time>
      </trkpt>
      <trkpt lat="43.90752" lon="5.35736">
        <ele>284.69</ele>
        <time>2019-11-25T10:41:41Z</time>
      </trkpt>
      <trkpt lat="43.90747" lon="5.35718">
        <ele>284.21</ele>
        <time>2019-11-25T10:41:59Z</time>
      </trkpt>
      <trkpt lat="43.90747" lon="5.35716">
        <ele>284.21</ele>
        <time>2019-11-25T10:42:01Z</time>
      </trkpt>
      <trkpt lat="43.90741" lon="5.35705">
        <ele>284.21</ele>
        <time>2019-11-25T10:42:17Z</time>
      </trkpt>
      <trkpt lat="43.90737" lon="5.35701">
        <ele>283.73</ele>
        <time>2019-11-25T10:42:34Z</time>
      </trkpt>
      <trkpt lat="43.9074" lon="5.357">
        <ele>283.73</ele>
        <time>2019-11-25T10:42:55Z</time>
      </trkpt>
      <trkpt lat="43.90747" lon="5.3571">
        <ele>283.73</ele>
        <time>2019-11-25T10:43:11Z</time>
      </trkpt>
      <trkpt lat="43.9075" lon="5.35728">
        <ele>283.73</ele>
        <time>2019-11-25T10:43:26Z</time>
      </trkpt>
      <trkpt lat="43.90744" lon="5.3574">
        <ele>283.73</ele>
        <time>2019-11-25T10:43:36Z</time>
      </trkpt>
      <trkpt lat="43.90725" lon="5.35749">
        <ele>283.73</ele>
        <time>2019-11-25T10:43:56Z</time>
      </trkpt>
      <trkpt lat="43.90711" lon="5.35756">
        <ele>284.21</ele>
        <time>2019-11-25T10:44:11Z</time>
      </trkpt>
      <trkpt lat="43.90704" lon="5.35777">
        <ele>284.21</ele>
        <time>2019-11-25T10:44:31Z</time>
      </trkpt>
      <trkpt lat="43.90705" lon="5.3578">
        <ele>285.17</ele>
        <time>2019-11-25T10:44:34Z</time>
      </trkpt>
      <trkpt lat="43.90714" lon="5.35798">
        <ele>286.61</ele>
        <time>2019-11-25T10:44:50Z</time>
      </trkpt>
      <trkpt lat="43.90725" lon="5.35824">
        <ele>288.53</ele>
        <time>2019-11-25T10:45:12Z</time>
      </trkpt>
      <trkpt lat="43.90735" lon="5.35846">
        <ele>289.97</ele>
        <time>2019-11-25T10:45:32Z</time>
      </trkpt>
      <trkpt lat="43.90745" lon="5.35868">
        <ele>291.9</ele>
        <time>2019-11-25T10:45:52Z</time>
      </trkpt>
      <trkpt lat="43.90753" lon="5.35889">
        <ele>293.34</ele>
        <time>2019-11-25T10:46:10Z</time>
      </trkpt>
      <trkpt lat="43.9076" lon="5.35914">
        <ele>294.78</ele>
        <time>2019-11-25T10:46:29Z</time>
      </trkpt>
      <trkpt lat="43.90764" lon="5.35919">
        <ele>294.78</ele>
        <time>2019-11-25T10:46:44Z</time>
      </trkpt>
      <trkpt lat="43.90766" lon="5.35921">
        <ele>295.26</ele>
        <time>2019-11-25T10:47:11Z</time>
      </trkpt>
      <trkpt lat="43.90772" lon="5.35924">
        <ele>295.26</ele>
        <time>2019-11-25T10:47:27Z</time>
      </trkpt>
      <trkpt lat="43.90782" lon="5.35935">
        <ele>295.74</ele>
        <time>2019-11-25T10:47:43Z</time>
      </trkpt>
      <trkpt lat="43.90791" lon="5.35945">
        <ele>297.18</ele>
        <time>2019-11-25T10:47:56Z</time>
      </trkpt>
      <trkpt lat="43.90804" lon="5.35961">
        <ele>299.11</ele>
        <time>2019-11-25T10:48:15Z</time>
      </trkpt>
      <trkpt lat="43.90815" lon="5.3597">
        <ele>300.55</ele>
        <time>2019-11-25T10:48:32Z</time>
      </trkpt>
      <trkpt lat="43.90828" lon="5.35981">
        <ele>302.47</ele>
        <time>2019-11-25T10:48:50Z</time>
      </trkpt>
      <trkpt lat="43.90839" lon="5.3599">
        <ele>303.91</ele>
        <time>2019-11-25T10:49:07Z</time>
      </trkpt>
      <trkpt lat="43.90849" lon="5.35997">
        <ele>305.36</ele>
        <time>2019-11-25T10:49:21Z</time>
      </trkpt>
      <trkpt lat="43.90863" lon="5.36007">
        <ele>306.8</ele>
        <time>2019-11-25T10:49:38Z</time>
      </trkpt>
      <trkpt lat="43.90871" lon="5.36012">
        <ele>312.09</ele>
        <time>2019-11-25T10:49:51Z</time>
      </trkpt>
      <trkpt lat="43.90872" lon="5.36013">
        <ele>308.72</ele>
        <time>2019-11-25T10:49:52Z</time>
      </trkpt>
      <trkpt lat="43.90883" lon="5.36018">
        <ele>309.68</ele>
        <time>2019-11-25T10:50:07Z</time>
      </trkpt>
      <trkpt lat="43.9089" lon="5.36023">
        <ele>310.64</ele>
        <time>2019-11-25T10:50:23Z</time>
      </trkpt>
      <trkpt lat="43.90891" lon="5.36022">
        <ele>310.64</ele>
        <time>2019-11-25T10:50:49Z</time>
      </trkpt>
      <trkpt lat="43.9089" lon="5.36022">
        <ele>307.28</ele>
        <time>2019-11-25T10:51:15Z</time>
      </trkpt>
      <trkpt lat="43.90889" lon="5.36022">
        <ele>311.12</ele>
        <time>2019-11-25T10:51:16Z</time>
      </trkpt>
      <trkpt lat="43.90896" lon="5.36019">
        <ele>311.12</ele>
        <time>2019-11-25T10:51:31Z</time>
      </trkpt>
      <trkpt lat="43.90899" lon="5.3601">
        <ele>312.09</ele>
        <time>2019-11-25T10:51:43Z</time>
      </trkpt>
      <trkpt lat="43.90899" lon="5.3601">
        <ele>312.09</ele>
        <time>2019-11-25T10:51:44Z</time>
      </trkpt>
      <trkpt lat="43.90906" lon="5.36001">
        <ele>313.53</ele>
        <time>2019-11-25T10:52:00Z</time>
      </trkpt>
      <trkpt lat="43.9091" lon="5.35998">
        <ele>314.49</ele>
        <time>2019-11-25T10:52:13Z</time>
      </trkpt>
      <trkpt lat="43.90923" lon="5.35987">
        <ele>316.41</ele>
        <time>2019-11-25T10:52:32Z</time>
      </trkpt>
      <trkpt lat="43.90931" lon="5.35982">
        <ele>317.85</ele>
        <time>2019-11-25T10:52:46Z</time>
      </trkpt>
      <trkpt lat="43.90938" lon="5.35977">
        <ele>318.81</ele>
        <time>2019-11-25T10:52:57Z</time>
      </trkpt>
      <trkpt lat="43.90945" lon="5.35973">
        <ele>320.26</ele>
        <time>2019-11-25T10:53:10Z</time>
      </trkpt>
      <trkpt lat="43.90954" lon="5.35972">
        <ele>321.7</ele>
        <time>2019-11-25T10:53:24Z</time>
      </trkpt>
      <trkpt lat="43.90961" lon="5.35977">
        <ele>322.66</ele>
        <time>2019-11-25T10:53:36Z</time>
      </trkpt>
      <trkpt lat="43.90973" lon="5.35982">
        <ele>324.1</ele>
        <time>2019-11-25T10:53:50Z</time>
      </trkpt>
      <trkpt lat="43.90982" lon="5.35985">
        <ele>325.54</ele>
        <time>2019-11-25T10:54:02Z</time>
      </trkpt>
      <trkpt lat="43.90991" lon="5.35986">
        <ele>326.99</ele>
        <time>2019-11-25T10:54:16Z</time>
      </trkpt>
      <trkpt lat="43.90998" lon="5.35987">
        <ele>328.43</ele>
        <time>2019-11-25T10:54:30Z</time>
      </trkpt>
      <trkpt lat="43.91005" lon="5.35988">
        <ele>329.39</ele>
        <time>2019-11-25T10:54:42Z</time>
      </trkpt>
      <trkpt lat="43.91006" lon="5.35988">
        <ele>329.39</ele>
        <time>2019-11-25T10:54:43Z</time>
      </trkpt>
      <trkpt lat="43.91017" lon="5.35987">
        <ele>330.83</ele>
        <time>2019-11-25T10:54:55Z</time>
      </trkpt>
      <trkpt lat="43.91024" lon="5.35985">
        <ele>331.31</ele>
        <time>2019-11-25T10:55:02Z</time>
      </trkpt>
      <trkpt lat="43.91036" lon="5.35985">
        <ele>332.75</ele>
        <time>2019-11-25T10:55:15Z</time>
      </trkpt>
      <trkpt lat="43.91047" lon="5.35987">
        <ele>334.2</ele>
        <time>2019-11-25T10:55:30Z</time>
      </trkpt>
      <trkpt lat="43.91061" lon="5.35982">
        <ele>335.64</ele>
        <time>2019-11-25T10:55:47Z</time>
      </trkpt>
      <trkpt lat="43.91065" lon="5.35982">
        <ele>335.64</ele>
        <time>2019-11-25T10:55:51Z</time>
      </trkpt>
      <trkpt lat="43.91076" lon="5.35985">
        <ele>336.6</ele>
        <time>2019-11-25T10:56:08Z</time>
      </trkpt>
      <trkpt lat="43.91079" lon="5.35981">
        <ele>336.6</ele>
        <time>2019-11-25T10:56:39Z</time>
      </trkpt>
      <trkpt lat="43.91074" lon="5.35975">
        <ele>337.08</ele>
        <time>2019-11-25T10:57:08Z</time>
      </trkpt>
      <trkpt lat="43.91079" lon="5.35983">
        <ele>337.56</ele>
        <time>2019-11-25T10:57:30Z</time>
      </trkpt>
      <trkpt lat="43.9108" lon="5.35987">
        <ele>337.08</ele>
        <time>2019-11-25T10:57:51Z</time>
      </trkpt>
      <trkpt lat="43.9108" lon="5.3599">
        <ele>332.75</ele>
        <time>2019-11-25T10:58:03Z</time>
      </trkpt>
      <trkpt lat="43.9108" lon="5.35989">
        <ele>342.37</ele>
        <time>2019-11-25T10:58:04Z</time>
      </trkpt>
      <trkpt lat="43.9108" lon="5.35989">
        <ele>337.08</ele>
        <time>2019-11-25T10:58:05Z</time>
      </trkpt>
      <trkpt lat="43.91087" lon="5.35987">
        <ele>337.56</ele>
        <time>2019-11-25T10:58:21Z</time>
      </trkpt>
      <trkpt lat="43.91095" lon="5.35985">
        <ele>336.6</ele>
        <time>2019-11-25T10:58:32Z</time>
      </trkpt>
      <trkpt lat="43.91106" lon="5.35982">
        <ele>336.12</ele>
        <time>2019-11-25T10:58:45Z</time>
      </trkpt>
      <trkpt lat="43.9112" lon="5.35979">
        <ele>335.64</ele>
        <time>2019-11-25T10:59:02Z</time>
      </trkpt>
      <trkpt lat="43.91134" lon="5.35976">
        <ele>335.64</ele>
        <time>2019-11-25T10:59:17Z</time>
      </trkpt>
      <trkpt lat="43.91147" lon="5.35974">
        <ele>335.16</ele>
        <time>2019-11-25T10:59:32Z</time>
      </trkpt>
      <trkpt lat="43.91159" lon="5.35977">
        <ele>335.16</ele>
        <time>2019-11-25T10:59:49Z</time>
      </trkpt>
      <trkpt lat="43.91172" lon="5.35979">
        <ele>335.16</ele>
        <time>2019-11-25T11:00:05Z</time>
      </trkpt>
      <trkpt lat="43.91189" lon="5.35986">
        <ele>336.12</ele>
        <time>2019-11-25T11:00:23Z</time>
      </trkpt>
      <trkpt lat="43.912" lon="5.35996">
        <ele>336.6</ele>
        <time>2019-11-25T11:00:37Z</time>
      </trkpt>
      <trkpt lat="43.91211" lon="5.36006">
        <ele>337.08</ele>
        <time>2019-11-25T11:00:53Z</time>
      </trkpt>
      <trkpt lat="43.9122" lon="5.36015">
        <ele>337.56</ele>
        <time>2019-11-25T11:01:08Z</time>
      </trkpt>
      <trkpt lat="43.91232" lon="5.36023">
        <ele>339</ele>
        <time>2019-11-25T11:01:26Z</time>
      </trkpt>
      <trkpt lat="43.91241" lon="5.36033">
        <ele>339.96</ele>
        <time>2019-11-25T11:01:44Z</time>
      </trkpt>
      <trkpt lat="43.91249" lon="5.36043">
        <ele>341.89</ele>
        <time>2019-11-25T11:02:01Z</time>
      </trkpt>
      <trkpt lat="43.91254" lon="5.36051">
        <ele>342.85</ele>
        <time>2019-11-25T11:02:16Z</time>
      </trkpt>
      <trkpt lat="43.91261" lon="5.36057">
        <ele>344.77</ele>
        <time>2019-11-25T11:02:33Z</time>
      </trkpt>
      <trkpt lat="43.91271" lon="5.36062">
        <ele>347.17</ele>
        <time>2019-11-25T11:02:50Z</time>
      </trkpt>
      <trkpt lat="43.91279" lon="5.36069">
        <ele>349.1</ele>
        <time>2019-11-25T11:03:13Z</time>
      </trkpt>
      <trkpt lat="43.91286" lon="5.36071">
        <ele>351.02</ele>
        <time>2019-11-25T11:03:30Z</time>
      </trkpt>
      <trkpt lat="43.91291" lon="5.36074">
        <ele>352.94</ele>
        <time>2019-11-25T11:03:45Z</time>
      </trkpt>
      <trkpt lat="43.91298" lon="5.3608">
        <ele>354.38</ele>
        <time>2019-11-25T11:04:01Z</time>
      </trkpt>
      <trkpt lat="43.91302" lon="5.36085">
        <ele>355.83</ele>
        <time>2019-11-25T11:04:15Z</time>
      </trkpt>
      <trkpt lat="43.91301" lon="5.36085">
        <ele>356.31</ele>
        <time>2019-11-25T11:04:32Z</time>
      </trkpt>
      <trkpt lat="43.91302" lon="5.36087">
        <ele>357.75</ele>
        <time>2019-11-25T11:04:43Z</time>
      </trkpt>
      <trkpt lat="43.91303" lon="5.36088">
        <ele>356.31</ele>
        <time>2019-11-25T11:04:46Z</time>
      </trkpt>
      <trkpt lat="43.91308" lon="5.36091">
        <ele>357.75</ele>
        <time>2019-11-25T11:04:54Z</time>
      </trkpt>
      <trkpt lat="43.91317" lon="5.36103">
        <ele>360.63</ele>
        <time>2019-11-25T11:05:12Z</time>
      </trkpt>
      <trkpt lat="43.91321" lon="5.36111">
        <ele>362.55</ele>
        <time>2019-11-25T11:05:26Z</time>
      </trkpt>
      <trkpt lat="43.91324" lon="5.36128">
        <ele>364</ele>
        <time>2019-11-25T11:05:43Z</time>
      </trkpt>
      <trkpt lat="43.9133" lon="5.36135">
        <ele>365.44</ele>
        <time>2019-11-25T11:06:01Z</time>
      </trkpt>
      <trkpt lat="43.91333" lon="5.36143">
        <ele>366.4</ele>
        <time>2019-11-25T11:06:13Z</time>
      </trkpt>
      <trkpt lat="43.91337" lon="5.36161">
        <ele>366.4</ele>
        <time>2019-11-25T11:06:29Z</time>
      </trkpt>
      <trkpt lat="43.91343" lon="5.36184">
        <ele>366.4</ele>
        <time>2019-11-25T11:06:47Z</time>
      </trkpt>
      <trkpt lat="43.91346" lon="5.36201">
        <ele>365.92</ele>
        <time>2019-11-25T11:07:02Z</time>
      </trkpt>
      <trkpt lat="43.91343" lon="5.36207">
        <ele>366.88</ele>
        <time>2019-11-25T11:07:14Z</time>
      </trkpt>
      <trkpt lat="43.91342" lon="5.36208">
        <ele>363.52</ele>
        <time>2019-11-25T11:07:36Z</time>
      </trkpt>
      <trkpt lat="43.91342" lon="5.36208">
        <ele>368.32</ele>
        <time>2019-11-25T11:07:37Z</time>
      </trkpt>
      <trkpt lat="43.91344" lon="5.3622">
        <ele>368.32</ele>
        <time>2019-11-25T11:07:54Z</time>
      </trkpt>
      <trkpt lat="43.91337" lon="5.36233">
        <ele>369.76</ele>
        <time>2019-11-25T11:08:09Z</time>
      </trkpt>
      <trkpt lat="43.91333" lon="5.36245">
        <ele>370.73</ele>
        <time>2019-11-25T11:08:24Z</time>
      </trkpt>
      <trkpt lat="43.91332" lon="5.36257">
        <ele>372.17</ele>
        <time>2019-11-25T11:08:40Z</time>
      </trkpt>
      <trkpt lat="43.91329" lon="5.36263">
        <ele>372.17</ele>
        <time>2019-11-25T11:08:58Z</time>
      </trkpt>
      <trkpt lat="43.91325" lon="5.36267">
        <ele>371.69</ele>
        <time>2019-11-25T11:09:20Z</time>
      </trkpt>
      <trkpt lat="43.91321" lon="5.36276">
        <ele>372.17</ele>
        <time>2019-11-25T11:09:47Z</time>
      </trkpt>
      <trkpt lat="43.9132" lon="5.36281">
        <ele>371.69</ele>
        <time>2019-11-25T11:10:08Z</time>
      </trkpt>
      <trkpt lat="43.91318" lon="5.36292">
        <ele>372.17</ele>
        <time>2019-11-25T11:10:25Z</time>
      </trkpt>
      <trkpt lat="43.91319" lon="5.36303">
        <ele>374.57</ele>
        <time>2019-11-25T11:10:44Z</time>
      </trkpt>
      <trkpt lat="43.91314" lon="5.36316">
        <ele>374.57</ele>
        <time>2019-11-25T11:10:59Z</time>
      </trkpt>
      <trkpt lat="43.91311" lon="5.36328">
        <ele>373.13</ele>
        <time>2019-11-25T11:11:10Z</time>
      </trkpt>
      <trkpt lat="43.91305" lon="5.36357">
        <ele>372.65</ele>
        <time>2019-11-25T11:11:30Z</time>
      </trkpt>
      <trkpt lat="43.91309" lon="5.36368">
        <ele>372.65</ele>
        <time>2019-11-25T11:11:47Z</time>
      </trkpt>
      <trkpt lat="43.91311" lon="5.3637">
        <ele>374.09</ele>
        <time>2019-11-25T11:11:52Z</time>
      </trkpt>
      <trkpt lat="43.91315" lon="5.36383">
        <ele>375.05</ele>
        <time>2019-11-25T11:12:06Z</time>
      </trkpt>
      <trkpt lat="43.91319" lon="5.36397">
        <ele>375.53</ele>
        <time>2019-11-25T11:12:22Z</time>
      </trkpt>
      <trkpt lat="43.91322" lon="5.36411">
        <ele>374.09</ele>
        <time>2019-11-25T11:12:36Z</time>
      </trkpt>
      <trkpt lat="43.91327" lon="5.36422">
        <ele>374.09</ele>
        <time>2019-11-25T11:12:51Z</time>
      </trkpt>
      <trkpt lat="43.91334" lon="5.36434">
        <ele>375.05</ele>
        <time>2019-11-25T11:13:04Z</time>
      </trkpt>
      <trkpt lat="43.91339" lon="5.36447">
        <ele>375.53</ele>
        <time>2019-11-25T11:13:17Z</time>
      </trkpt>
      <trkpt lat="43.9134" lon="5.36454">
        <ele>374.09</ele>
        <time>2019-11-25T11:13:27Z</time>
      </trkpt>
      <trkpt lat="43.91348" lon="5.36463">
        <ele>374.09</ele>
        <time>2019-11-25T11:13:45Z</time>
      </trkpt>
      <trkpt lat="43.9135" lon="5.36464">
        <ele>375.05</ele>
        <time>2019-11-25T11:13:50Z</time>
      </trkpt>
      <trkpt lat="43.91362" lon="5.36469">
        <ele>376.01</ele>
        <time>2019-11-25T11:14:06Z</time>
      </trkpt>
      <trkpt lat="43.91373" lon="5.36473">
        <ele>377.45</ele>
        <time>2019-11-25T11:14:23Z</time>
      </trkpt>
      <trkpt lat="43.91382" lon="5.36474">
        <ele>378.42</ele>
        <time>2019-11-25T11:14:37Z</time>
      </trkpt>
      <trkpt lat="43.91391" lon="5.36477">
        <ele>379.38</ele>
        <time>2019-11-25T11:14:50Z</time>
      </trkpt>
      <trkpt lat="43.914" lon="5.36479">
        <ele>379.86</ele>
        <time>2019-11-25T11:15:03Z</time>
      </trkpt>
      <trkpt lat="43.91411" lon="5.36483">
        <ele>381.3</ele>
        <time>2019-11-25T11:15:20Z</time>
      </trkpt>
      <trkpt lat="43.91418" lon="5.36484">
        <ele>383.22</ele>
        <time>2019-11-25T11:15:35Z</time>
      </trkpt>
      <trkpt lat="43.91432" lon="5.36484">
        <ele>384.66</ele>
        <time>2019-11-25T11:15:53Z</time>
      </trkpt>
      <trkpt lat="43.91437" lon="5.36487">
        <ele>385.15</ele>
        <time>2019-11-25T11:16:02Z</time>
      </trkpt>
      <trkpt lat="43.91453" lon="5.36501">
        <ele>385.63</ele>
        <time>2019-11-25T11:16:23Z</time>
      </trkpt>
      <trkpt lat="43.91455" lon="5.365">
        <ele>385.63</ele>
        <time>2019-11-25T11:16:26Z</time>
      </trkpt>
      <trkpt lat="43.91454" lon="5.365">
        <ele>385.15</ele>
        <time>2019-11-25T11:16:31Z</time>
      </trkpt>
      <trkpt lat="43.91455" lon="5.365">
        <ele>385.15</ele>
        <time>2019-11-25T11:16:50Z</time>
      </trkpt>
      <trkpt lat="43.91455" lon="5.36501">
        <ele>380.34</ele>
        <time>2019-11-25T11:17:03Z</time>
      </trkpt>
      <trkpt lat="43.91456" lon="5.36502">
        <ele>391.87</ele>
        <time>2019-11-25T11:17:04Z</time>
      </trkpt>
      <trkpt lat="43.91472" lon="5.36499">
        <ele>387.07</ele>
        <time>2019-11-25T11:17:22Z</time>
      </trkpt>
      <trkpt lat="43.91477" lon="5.36485">
        <ele>388.99</ele>
        <time>2019-11-25T11:17:37Z</time>
      </trkpt>
      <trkpt lat="43.9147" lon="5.36473">
        <ele>390.91</ele>
        <time>2019-11-25T11:17:53Z</time>
      </trkpt>
      <trkpt lat="43.91464" lon="5.36459">
        <ele>393.32</ele>
        <time>2019-11-25T11:18:10Z</time>
      </trkpt>
      <trkpt lat="43.91458" lon="5.36448">
        <ele>395.72</ele>
        <time>2019-11-25T11:18:28Z</time>
      </trkpt>
      <trkpt lat="43.91454" lon="5.36438">
        <ele>397.16</ele>
        <time>2019-11-25T11:18:42Z</time>
      </trkpt>
      <trkpt lat="43.91451" lon="5.36431">
        <ele>400.05</ele>
        <time>2019-11-25T11:18:56Z</time>
      </trkpt>
      <trkpt lat="43.91451" lon="5.36431">
        <ele>400.53</ele>
        <time>2019-11-25T11:19:16Z</time>
      </trkpt>
      <trkpt lat="43.91461" lon="5.3643">
        <ele>401.97</ele>
        <time>2019-11-25T11:19:29Z</time>
      </trkpt>
      <trkpt lat="43.91471" lon="5.36433">
        <ele>404.37</ele>
        <time>2019-11-25T11:19:46Z</time>
      </trkpt>
      <trkpt lat="43.91481" lon="5.36433">
        <ele>406.29</ele>
        <time>2019-11-25T11:20:02Z</time>
      </trkpt>
      <trkpt lat="43.91491" lon="5.36431">
        <ele>408.22</ele>
        <time>2019-11-25T11:20:19Z</time>
      </trkpt>
      <trkpt lat="43.91498" lon="5.36429">
        <ele>410.14</ele>
        <time>2019-11-25T11:20:32Z</time>
      </trkpt>
      <trkpt lat="43.91505" lon="5.36424">
        <ele>412.06</ele>
        <time>2019-11-25T11:20:46Z</time>
      </trkpt>
      <trkpt lat="43.91512" lon="5.36418">
        <ele>413.98</ele>
        <time>2019-11-25T11:21:01Z</time>
      </trkpt>
      <trkpt lat="43.91525" lon="5.36411">
        <ele>415.43</ele>
        <time>2019-11-25T11:21:17Z</time>
      </trkpt>
      <trkpt lat="43.91532" lon="5.36404">
        <ele>416.87</ele>
        <time>2019-11-25T11:21:32Z</time>
      </trkpt>
      <trkpt lat="43.91531" lon="5.36398">
        <ele>415.91</ele>
        <time>2019-11-25T11:22:00Z</time>
      </trkpt>
      <trkpt lat="43.91538" lon="5.36396">
        <ele>415.91</ele>
        <time>2019-11-25T11:22:21Z</time>
      </trkpt>
      <trkpt lat="43.91544" lon="5.36393">
        <ele>417.35</ele>
        <time>2019-11-25T11:22:29Z</time>
      </trkpt>
      <trkpt lat="43.91555" lon="5.36388">
        <ele>418.79</ele>
        <time>2019-11-25T11:22:45Z</time>
      </trkpt>
      <trkpt lat="43.91566" lon="5.36384">
        <ele>420.71</ele>
        <time>2019-11-25T11:23:01Z</time>
      </trkpt>
      <trkpt lat="43.91578" lon="5.36378">
        <ele>422.64</ele>
        <time>2019-11-25T11:23:17Z</time>
      </trkpt>
      <trkpt lat="43.91588" lon="5.36372">
        <ele>425.04</ele>
        <time>2019-11-25T11:23:34Z</time>
      </trkpt>
      <trkpt lat="43.91594" lon="5.36369">
        <ele>426.96</ele>
        <time>2019-11-25T11:23:49Z</time>
      </trkpt>
      <trkpt lat="43.91599" lon="5.36369">
        <ele>428.4</ele>
        <time>2019-11-25T11:24:07Z</time>
      </trkpt>
      <trkpt lat="43.91609" lon="5.36364">
        <ele>430.33</ele>
        <time>2019-11-25T11:24:24Z</time>
      </trkpt>
      <trkpt lat="43.91621" lon="5.36362">
        <ele>432.73</ele>
        <time>2019-11-25T11:24:41Z</time>
      </trkpt>
      <trkpt lat="43.91631" lon="5.36362">
        <ele>434.17</ele>
        <time>2019-11-25T11:24:58Z</time>
      </trkpt>
      <trkpt lat="43.91637" lon="5.36359">
        <ele>436.1</ele>
        <time>2019-11-25T11:25:18Z</time>
      </trkpt>
      <trkpt lat="43.91637" lon="5.36359">
        <ele>436.1</ele>
        <time>2019-11-25T11:25:46Z</time>
      </trkpt>
      <trkpt lat="43.91635" lon="5.36353">
        <ele>437.06</ele>
        <time>2019-11-25T11:26:05Z</time>
      </trkpt>
      <trkpt lat="43.91623" lon="5.3634">
        <ele>438.98</ele>
        <time>2019-11-25T11:26:25Z</time>
      </trkpt>
      <trkpt lat="43.91613" lon="5.36331">
        <ele>440.42</ele>
        <time>2019-11-25T11:26:41Z</time>
      </trkpt>
      <trkpt lat="43.91599" lon="5.36321">
        <ele>442.34</ele>
        <time>2019-11-25T11:27:01Z</time>
      </trkpt>
      <trkpt lat="43.91591" lon="5.36316">
        <ele>442.82</ele>
        <time>2019-11-25T11:27:17Z</time>
      </trkpt>
      <trkpt lat="43.91582" lon="5.36308">
        <ele>443.79</ele>
        <time>2019-11-25T11:27:37Z</time>
      </trkpt>
      <trkpt lat="43.91574" lon="5.36297">
        <ele>445.23</ele>
        <time>2019-11-25T11:27:53Z</time>
      </trkpt>
      <trkpt lat="43.91563" lon="5.36288">
        <ele>447.15</ele>
        <time>2019-11-25T11:28:08Z</time>
      </trkpt>
      <trkpt lat="43.91552" lon="5.36272">
        <ele>448.11</ele>
        <time>2019-11-25T11:28:27Z</time>
      </trkpt>
      <trkpt lat="43.91547" lon="5.3625">
        <ele>448.59</ele>
        <time>2019-11-25T11:28:44Z</time>
      </trkpt>
      <trkpt lat="43.91557" lon="5.36238">
        <ele>450.03</ele>
        <time>2019-11-25T11:29:01Z</time>
      </trkpt>
      <trkpt lat="43.91571" lon="5.36241">
        <ele>451.48</ele>
        <time>2019-11-25T11:29:18Z</time>
      </trkpt>
      <trkpt lat="43.91585" lon="5.36242">
        <ele>452.92</ele>
        <time>2019-11-25T11:29:34Z</time>
      </trkpt>
      <trkpt lat="43.91601" lon="5.36242">
        <ele>455.32</ele>
        <time>2019-11-25T11:29:55Z</time>
      </trkpt>
      <trkpt lat="43.91615" lon="5.36253">
        <ele>456.76</ele>
        <time>2019-11-25T11:30:12Z</time>
      </trkpt>
      <trkpt lat="43.91628" lon="5.36263">
        <ele>457.72</ele>
        <time>2019-11-25T11:30:28Z</time>
      </trkpt>
      <trkpt lat="43.91647" lon="5.3627">
        <ele>458.21</ele>
        <time>2019-11-25T11:30:47Z</time>
      </trkpt>
      <trkpt lat="43.91664" lon="5.36281">
        <ele>458.69</ele>
        <time>2019-11-25T11:31:06Z</time>
      </trkpt>
      <trkpt lat="43.9167" lon="5.36285">
        <ele>459.17</ele>
        <time>2019-11-25T11:31:22Z</time>
      </trkpt>
      <trkpt lat="43.9168" lon="5.36289">
        <ele>459.65</ele>
        <time>2019-11-25T11:31:37Z</time>
      </trkpt>
      <trkpt lat="43.91693" lon="5.36296">
        <ele>460.13</ele>
        <time>2019-11-25T11:31:54Z</time>
      </trkpt>
      <trkpt lat="43.9171" lon="5.36303">
        <ele>460.61</ele>
        <time>2019-11-25T11:32:13Z</time>
      </trkpt>
      <trkpt lat="43.91726" lon="5.36312">
        <ele>461.57</ele>
        <time>2019-11-25T11:32:33Z</time>
      </trkpt>
      <trkpt lat="43.91733" lon="5.36312">
        <ele>462.05</ele>
        <time>2019-11-25T11:32:51Z</time>
      </trkpt>
      <trkpt lat="43.91733" lon="5.36311">
        <ele>462.53</ele>
        <time>2019-11-25T11:33:04Z</time>
      </trkpt>
      <trkpt lat="43.91734" lon="5.36309">
        <ele>461.09</ele>
        <time>2019-11-25T11:33:18Z</time>
      </trkpt>
      <trkpt lat="43.91734" lon="5.36307">
        <ele>461.57</ele>
        <time>2019-11-25T11:33:40Z</time>
      </trkpt>
      <trkpt lat="43.91732" lon="5.36314">
        <ele>462.05</ele>
        <time>2019-11-25T11:33:55Z</time>
      </trkpt>
      <trkpt lat="43.91735" lon="5.36314">
        <ele>462.05</ele>
        <time>2019-11-25T11:34:29Z</time>
      </trkpt>
      <trkpt lat="43.91735" lon="5.36314">
        <ele>461.09</ele>
        <time>2019-11-25T11:34:46Z</time>
      </trkpt>
      <trkpt lat="43.91734" lon="5.36312">
        <ele>461.09</ele>
        <time>2019-11-25T11:35:20Z</time>
      </trkpt>
      <trkpt lat="43.91734" lon="5.36315">
        <ele>461.57</ele>
        <time>2019-11-25T11:36:06Z</time>
      </trkpt>
      <trkpt lat="43.91734" lon="5.36312">
        <ele>461.57</ele>
        <time>2019-11-25T11:36:41Z</time>
      </trkpt>
      <trkpt lat="43.91733" lon="5.36312">
        <ele>462.05</ele>
        <time>2019-11-25T11:37:18Z</time>
      </trkpt>
      <trkpt lat="43.91734" lon="5.36313">
        <ele>462.05</ele>
        <time>2019-11-25T11:37:55Z</time>
      </trkpt>
      <trkpt lat="43.91736" lon="5.36312">
        <ele>462.05</ele>
        <time>2019-11-25T11:38:40Z</time>
      </trkpt>
      <trkpt lat="43.91735" lon="5.36313">
        <ele>462.53</ele>
        <time>2019-11-25T11:39:24Z</time>
      </trkpt>
      <trkpt lat="43.91734" lon="5.36315">
        <ele>462.53</ele>
        <time>2019-11-25T11:39:55Z</time>
      </trkpt>
      <trkpt lat="43.91732" lon="5.36314">
        <ele>462.53</ele>
        <time>2019-11-25T11:40:38Z</time>
      </trkpt>
      <trkpt lat="43.91733" lon="5.36314">
        <ele>463.01</ele>
        <time>2019-11-25T11:41:29Z</time>
      </trkpt>
      <trkpt lat="43.91733" lon="5.36311">
        <ele>463.01</ele>
        <time>2019-11-25T11:42:12Z</time>
      </trkpt>
      <trkpt lat="43.91733" lon="5.36312">
        <ele>463.01</ele>
        <time>2019-11-25T11:42:44Z</time>
      </trkpt>
      <trkpt lat="43.91733" lon="5.36311">
        <ele>463.49</ele>
        <time>2019-11-25T11:43:27Z</time>
      </trkpt>
      <trkpt lat="43.91731" lon="5.36315">
        <ele>463.49</ele>
        <time>2019-11-25T11:43:56Z</time>
      </trkpt>
      <trkpt lat="43.91732" lon="5.36313">
        <ele>463.49</ele>
        <time>2019-11-25T11:44:35Z</time>
      </trkpt>
      <trkpt lat="43.9173" lon="5.36313">
        <ele>463.49</ele>
        <time>2019-11-25T11:45:17Z</time>
      </trkpt>
      <trkpt lat="43.91733" lon="5.36314">
        <ele>463.97</ele>
        <time>2019-11-25T11:45:50Z</time>
      </trkpt>
      <trkpt lat="43.91734" lon="5.36312">
        <ele>463.97</ele>
        <time>2019-11-25T11:46:27Z</time>
      </trkpt>
      <trkpt lat="43.91733" lon="5.36313">
        <ele>463.97</ele>
        <time>2019-11-25T11:47:10Z</time>
      </trkpt>
      <trkpt lat="43.91732" lon="5.36313">
        <ele>465.42</ele>
        <time>2019-11-25T11:47:37Z</time>
      </trkpt>
      <trkpt lat="43.91733" lon="5.36312">
        <ele>465.9</ele>
        <time>2019-11-25T11:47:52Z</time>
      </trkpt>
      <trkpt lat="43.91733" lon="5.36309">
        <ele>465.42</ele>
        <time>2019-11-25T11:48:14Z</time>
      </trkpt>
      <trkpt lat="43.91735" lon="5.36309">
        <ele>465.42</ele>
        <time>2019-11-25T11:48:37Z</time>
      </trkpt>
      <trkpt lat="43.91735" lon="5.36309">
        <ele>465.42</ele>
        <time>2019-11-25T11:49:07Z</time>
      </trkpt>
      <trkpt lat="43.91733" lon="5.36311">
        <ele>465.42</ele>
        <time>2019-11-25T11:49:45Z</time>
      </trkpt>
      <trkpt lat="43.91736" lon="5.3631">
        <ele>465.42</ele>
        <time>2019-11-25T11:50:16Z</time>
      </trkpt>
      <trkpt lat="43.91734" lon="5.3631">
        <ele>465.42</ele>
        <time>2019-11-25T11:50:47Z</time>
      </trkpt>
      <trkpt lat="43.91734" lon="5.36309">
        <ele>465.42</ele>
        <time>2019-11-25T11:51:27Z</time>
      </trkpt>
      <trkpt lat="43.91733" lon="5.3631">
        <ele>465.42</ele>
        <time>2019-11-25T11:52:07Z</time>
      </trkpt>
      <trkpt lat="43.91733" lon="5.36309">
        <ele>465.42</ele>
        <time>2019-11-25T11:52:34Z</time>
      </trkpt>
      <trkpt lat="43.91733" lon="5.36309">
        <ele>465.42</ele>
        <time>2019-11-25T11:53:02Z</time>
      </trkpt>
      <trkpt lat="43.91732" lon="5.36309">
        <ele>465.42</ele>
        <time>2019-11-25T11:53:33Z</time>
      </trkpt>
      <trkpt lat="43.91732" lon="5.36311">
        <ele>465.42</ele>
        <time>2019-11-25T11:54:13Z</time>
      </trkpt>
      <trkpt lat="43.91732" lon="5.36308">
        <ele>465.42</ele>
        <time>2019-11-25T11:54:42Z</time>
      </trkpt>
      <trkpt lat="43.91733" lon="5.36309">
        <ele>465.42</ele>
        <time>2019-11-25T11:55:13Z</time>
      </trkpt>
      <trkpt lat="43.9173" lon="5.36311">
        <ele>465.42</ele>
        <time>2019-11-25T11:55:56Z</time>
      </trkpt>
      <trkpt lat="43.9173" lon="5.36309">
        <ele>465.42</ele>
        <time>2019-11-25T11:56:31Z</time>
      </trkpt>
      <trkpt lat="43.91732" lon="5.36308">
        <ele>465.42</ele>
        <time>2019-11-25T11:57:02Z</time>
      </trkpt>
      <trkpt lat="43.91734" lon="5.36308">
        <ele>465.42</ele>
        <time>2019-11-25T11:57:31Z</time>
      </trkpt>
      <trkpt lat="43.91732" lon="5.36311">
        <ele>465.42</ele>
        <time>2019-11-25T11:58:12Z</time>
      </trkpt>
      <trkpt lat="43.91733" lon="5.36311">
        <ele>465.9</ele>
        <time>2019-11-25T11:58:41Z</time>
      </trkpt>
      <trkpt lat="43.91731" lon="5.36313">
        <ele>465.9</ele>
        <time>2019-11-25T11:59:05Z</time>
      </trkpt>
      <trkpt lat="43.9173" lon="5.36312">
        <ele>465.9</ele>
        <time>2019-11-25T11:59:41Z</time>
      </trkpt>
      <trkpt lat="43.91731" lon="5.36312">
        <ele>465.9</ele>
        <time>2019-11-25T12:00:14Z</time>
      </trkpt>
      <trkpt lat="43.91727" lon="5.36311">
        <ele>465.9</ele>
        <time>2019-11-25T12:00:44Z</time>
      </trkpt>
      <trkpt lat="43.91731" lon="5.36313">
        <ele>465.42</ele>
        <time>2019-11-25T12:01:16Z</time>
      </trkpt>
      <trkpt lat="43.91731" lon="5.36311">
        <ele>465.9</ele>
        <time>2019-11-25T12:01:52Z</time>
      </trkpt>
      <trkpt lat="43.91731" lon="5.3631">
        <ele>465.9</ele>
        <time>2019-11-25T12:02:20Z</time>
      </trkpt>
      <trkpt lat="43.91731" lon="5.36311">
        <ele>465.9</ele>
        <time>2019-11-25T12:02:46Z</time>
      </trkpt>
      <trkpt lat="43.91731" lon="5.3631">
        <ele>465.9</ele>
        <time>2019-11-25T12:03:18Z</time>
      </trkpt>
      <trkpt lat="43.91729" lon="5.3631">
        <ele>465.9</ele>
        <time>2019-11-25T12:03:47Z</time>
      </trkpt>
      <trkpt lat="43.91729" lon="5.36311">
        <ele>465.9</ele>
        <time>2019-11-25T12:04:20Z</time>
      </trkpt>
      <trkpt lat="43.91732" lon="5.36313">
        <ele>465.9</ele>
        <time>2019-11-25T12:04:58Z</time>
      </trkpt>
      <trkpt lat="43.91731" lon="5.36312">
        <ele>465.9</ele>
        <time>2019-11-25T12:05:26Z</time>
      </trkpt>
      <trkpt lat="43.91731" lon="5.36312">
        <ele>465.9</ele>
        <time>2019-11-25T12:06:00Z</time>
      </trkpt>
      <trkpt lat="43.9173" lon="5.36315">
        <ele>465.9</ele>
        <time>2019-11-25T12:06:34Z</time>
      </trkpt>
      <trkpt lat="43.9173" lon="5.36314">
        <ele>465.42</ele>
        <time>2019-11-25T12:07:04Z</time>
      </trkpt>
      <trkpt lat="43.91731" lon="5.36314">
        <ele>465.42</ele>
        <time>2019-11-25T12:07:39Z</time>
      </trkpt>
      <trkpt lat="43.91731" lon="5.36313">
        <ele>465.9</ele>
        <time>2019-11-25T12:08:10Z</time>
      </trkpt>
      <trkpt lat="43.91733" lon="5.36314">
        <ele>465.9</ele>
        <time>2019-11-25T12:08:41Z</time>
      </trkpt>
      <trkpt lat="43.91733" lon="5.36313">
        <ele>465.9</ele>
        <time>2019-11-25T12:09:09Z</time>
      </trkpt>
      <trkpt lat="43.91731" lon="5.36311">
        <ele>465.9</ele>
        <time>2019-11-25T12:09:42Z</time>
      </trkpt>
      <trkpt lat="43.91731" lon="5.36313">
        <ele>465.42</ele>
        <time>2019-11-25T12:10:11Z</time>
      </trkpt>
      <trkpt lat="43.91729" lon="5.36313">
        <ele>465.42</ele>
        <time>2019-11-25T12:10:45Z</time>
      </trkpt>
      <trkpt lat="43.91731" lon="5.36312">
        <ele>465.42</ele>
        <time>2019-11-25T12:11:19Z</time>
      </trkpt>
      <trkpt lat="43.91733" lon="5.36311">
        <ele>465.42</ele>
        <time>2019-11-25T12:11:56Z</time>
      </trkpt>
      <trkpt lat="43.91734" lon="5.36311">
        <ele>465.9</ele>
        <time>2019-11-25T12:12:25Z</time>
      </trkpt>
      <trkpt lat="43.91732" lon="5.36312">
        <ele>465.9</ele>
        <time>2019-11-25T12:12:52Z</time>
      </trkpt>
      <trkpt lat="43.91732" lon="5.36313">
        <ele>465.9</ele>
        <time>2019-11-25T12:13:24Z</time>
      </trkpt>
      <trkpt lat="43.91731" lon="5.36312">
        <ele>465.9</ele>
        <time>2019-11-25T12:13:51Z</time>
      </trkpt>
      <trkpt lat="43.91732" lon="5.36313">
        <ele>465.9</ele>
        <time>2019-11-25T12:14:22Z</time>
      </trkpt>
      <trkpt lat="43.91732" lon="5.36311">
        <ele>465.9</ele>
        <time>2019-11-25T12:14:55Z</time>
      </trkpt>
      <trkpt lat="43.91732" lon="5.36312">
        <ele>465.9</ele>
        <time>2019-11-25T12:15:28Z</time>
      </trkpt>
      <trkpt lat="43.91731" lon="5.36312">
        <ele>465.9</ele>
        <time>2019-11-25T12:15:57Z</time>
      </trkpt>
      <trkpt lat="43.91731" lon="5.36309">
        <ele>465.9</ele>
        <time>2019-11-25T12:16:33Z</time>
      </trkpt>
      <trkpt lat="43.91732" lon="5.36312">
        <ele>465.9</ele>
        <time>2019-11-25T12:16:58Z</time>
      </trkpt>
      <trkpt lat="43.91734" lon="5.36313">
        <ele>465.9</ele>
        <time>2019-11-25T12:17:26Z</time>
      </trkpt>
      <trkpt lat="43.91732" lon="5.36313">
        <ele>466.38</ele>
        <time>2019-11-25T12:17:57Z</time>
      </trkpt>
      <trkpt lat="43.91732" lon="5.36311">
        <ele>464.45</ele>
        <time>2019-11-25T12:18:10Z</time>
      </trkpt>
      <trkpt lat="43.91732" lon="5.36314">
        <ele>464.45</ele>
        <time>2019-11-25T12:18:39Z</time>
      </trkpt>
      <trkpt lat="43.91734" lon="5.36316">
        <ele>464.45</ele>
        <time>2019-11-25T12:19:03Z</time>
      </trkpt>
      <trkpt lat="43.91733" lon="5.36315">
        <ele>466.38</ele>
        <time>2019-11-25T12:19:27Z</time>
      </trkpt>
      <trkpt lat="43.91733" lon="5.36313">
        <ele>466.38</ele>
        <time>2019-11-25T12:20:00Z</time>
      </trkpt>
      <trkpt lat="43.91733" lon="5.36312">
        <ele>466.86</ele>
        <time>2019-11-25T12:20:23Z</time>
      </trkpt>
      <trkpt lat="43.91733" lon="5.36314">
        <ele>466.86</ele>
        <time>2019-11-25T12:20:32Z</time>
      </trkpt>
      <trkpt lat="43.91732" lon="5.36314">
        <ele>466.86</ele>
        <time>2019-11-25T12:20:59Z</time>
      </trkpt>
      <trkpt lat="43.91732" lon="5.36312">
        <ele>466.86</ele>
        <time>2019-11-25T12:21:25Z</time>
      </trkpt>
      <trkpt lat="43.91733" lon="5.36312">
        <ele>466.38</ele>
        <time>2019-11-25T12:21:52Z</time>
      </trkpt>
      <trkpt lat="43.91732" lon="5.36313">
        <ele>464.93</ele>
        <time>2019-11-25T12:21:55Z</time>
      </trkpt>
      <trkpt lat="43.91732" lon="5.36313">
        <ele>467.34</ele>
        <time>2019-11-25T12:21:57Z</time>
      </trkpt>
      <trkpt lat="43.91733" lon="5.36311">
        <ele>466.86</ele>
        <time>2019-11-25T12:22:23Z</time>
      </trkpt>
      <trkpt lat="43.91733" lon="5.36312">
        <ele>466.86</ele>
        <time>2019-11-25T12:22:33Z</time>
      </trkpt>
      <trkpt lat="43.91733" lon="5.36312">
        <ele>466.86</ele>
        <time>2019-11-25T12:22:58Z</time>
      </trkpt>
      <trkpt lat="43.91733" lon="5.36314">
        <ele>466.86</ele>
        <time>2019-11-25T12:23:18Z</time>
      </trkpt>
      <trkpt lat="43.91731" lon="5.36314">
        <ele>467.34</ele>
        <time>2019-11-25T12:23:43Z</time>
      </trkpt>
      <trkpt lat="43.91734" lon="5.36314">
        <ele>466.86</ele>
        <time>2019-11-25T12:24:00Z</time>
      </trkpt>
      <trkpt lat="43.91738" lon="5.36315">
        <ele>466.86</ele>
        <time>2019-11-25T12:24:13Z</time>
      </trkpt>
      <trkpt lat="43.91736" lon="5.36313">
        <ele>466.86</ele>
        <time>2019-11-25T12:24:30Z</time>
      </trkpt>
      <trkpt lat="43.91737" lon="5.36319">
        <ele>467.34</ele>
        <time>2019-11-25T12:24:44Z</time>
      </trkpt>
      <trkpt lat="43.91744" lon="5.36321">
        <ele>467.82</ele>
        <time>2019-11-25T12:24:57Z</time>
      </trkpt>
      <trkpt lat="43.91753" lon="5.36326">
        <ele>467.82</ele>
        <time>2019-11-25T12:25:12Z</time>
      </trkpt>
      <trkpt lat="43.91762" lon="5.36329">
        <ele>468.3</ele>
        <time>2019-11-25T12:25:26Z</time>
      </trkpt>
      <trkpt lat="43.91762" lon="5.36327">
        <ele>467.82</ele>
        <time>2019-11-25T12:25:44Z</time>
      </trkpt>
      <trkpt lat="43.91767" lon="5.36333">
        <ele>468.78</ele>
        <time>2019-11-25T12:25:58Z</time>
      </trkpt>
      <trkpt lat="43.91771" lon="5.3634">
        <ele>468.78</ele>
        <time>2019-11-25T12:26:10Z</time>
      </trkpt>
      <trkpt lat="43.91778" lon="5.36344">
        <ele>469.26</ele>
        <time>2019-11-25T12:26:21Z</time>
      </trkpt>
      <trkpt lat="43.91787" lon="5.36353">
        <ele>469.26</ele>
        <time>2019-11-25T12:26:37Z</time>
      </trkpt>
      <trkpt lat="43.91789" lon="5.36353">
        <ele>469.26</ele>
        <time>2019-11-25T12:26:50Z</time>
      </trkpt>
      <trkpt lat="43.9179" lon="5.36354">
        <ele>469.26</ele>
        <time>2019-11-25T12:26:52Z</time>
      </trkpt>
      <trkpt lat="43.91799" lon="5.36366">
        <ele>468.3</ele>
        <time>2019-11-25T12:27:08Z</time>
      </trkpt>
      <trkpt lat="43.91802" lon="5.36369">
        <ele>468.3</ele>
        <time>2019-11-25T12:27:22Z</time>
      </trkpt>
      <trkpt lat="43.91808" lon="5.36378">
        <ele>466.38</ele>
        <time>2019-11-25T12:27:34Z</time>
      </trkpt>
      <trkpt lat="43.91817" lon="5.36397">
        <ele>465.42</ele>
        <time>2019-11-25T12:27:52Z</time>
      </trkpt>
      <trkpt lat="43.91823" lon="5.36402">
        <ele>464.93</ele>
        <time>2019-11-25T12:28:08Z</time>
      </trkpt>
      <trkpt lat="43.91825" lon="5.36407">
        <ele>464.93</ele>
        <time>2019-11-25T12:28:17Z</time>
      </trkpt>
      <trkpt lat="43.91831" lon="5.36405">
        <ele>464.93</ele>
        <time>2019-11-25T12:28:31Z</time>
      </trkpt>
      <trkpt lat="43.91833" lon="5.36406">
        <ele>464.93</ele>
        <time>2019-11-25T12:28:43Z</time>
      </trkpt>
      <trkpt lat="43.91834" lon="5.36406">
        <ele>464.93</ele>
        <time>2019-11-25T12:29:02Z</time>
      </trkpt>
      <trkpt lat="43.91835" lon="5.36405">
        <ele>464.93</ele>
        <time>2019-11-25T12:29:23Z</time>
      </trkpt>
      <trkpt lat="43.91837" lon="5.36405">
        <ele>464.93</ele>
        <time>2019-11-25T12:29:47Z</time>
      </trkpt>
      <trkpt lat="43.9184" lon="5.36405">
        <ele>464.93</ele>
        <time>2019-11-25T12:30:05Z</time>
      </trkpt>
      <trkpt lat="43.91837" lon="5.36401">
        <ele>464.93</ele>
        <time>2019-11-25T12:30:29Z</time>
      </trkpt>
      <trkpt lat="43.91832" lon="5.36402">
        <ele>464.93</ele>
        <time>2019-11-25T12:30:46Z</time>
      </trkpt>
      <trkpt lat="43.9183" lon="5.36403">
        <ele>464.93</ele>
        <time>2019-11-25T12:31:00Z</time>
      </trkpt>
      <trkpt lat="43.9183" lon="5.36403">
        <ele>464.93</ele>
        <time>2019-11-25T12:31:22Z</time>
      </trkpt>
      <trkpt lat="43.91839" lon="5.36405">
        <ele>464.93</ele>
        <time>2019-11-25T12:31:35Z</time>
      </trkpt>
      <trkpt lat="43.91849" lon="5.36413">
        <ele>462.05</ele>
        <time>2019-11-25T12:31:50Z</time>
      </trkpt>
      <trkpt lat="43.91851" lon="5.36414">
        <ele>462.05</ele>
        <time>2019-11-25T12:31:53Z</time>
      </trkpt>
      <trkpt lat="43.91858" lon="5.36421">
        <ele>460.13</ele>
        <time>2019-11-25T12:32:09Z</time>
      </trkpt>
      <trkpt lat="43.91869" lon="5.36434">
        <ele>457.72</ele>
        <time>2019-11-25T12:32:25Z</time>
      </trkpt>
      <trkpt lat="43.91879" lon="5.36449">
        <ele>455.32</ele>
        <time>2019-11-25T12:32:42Z</time>
      </trkpt>
      <trkpt lat="43.91887" lon="5.36463">
        <ele>452.44</ele>
        <time>2019-11-25T12:32:55Z</time>
      </trkpt>
      <trkpt lat="43.91893" lon="5.36472">
        <ele>451</ele>
        <time>2019-11-25T12:33:04Z</time>
      </trkpt>
      <trkpt lat="43.91894" lon="5.36481">
        <ele>448.59</ele>
        <time>2019-11-25T12:33:11Z</time>
      </trkpt>
      <trkpt lat="43.91905" lon="5.36497">
        <ele>445.23</ele>
        <time>2019-11-25T12:33:25Z</time>
      </trkpt>
      <trkpt lat="43.91916" lon="5.36511">
        <ele>442.34</ele>
        <time>2019-11-25T12:33:41Z</time>
      </trkpt>
      <trkpt lat="43.91921" lon="5.36518">
        <ele>440.42</ele>
        <time>2019-11-25T12:33:52Z</time>
      </trkpt>
      <trkpt lat="43.91926" lon="5.36525">
        <ele>439.94</ele>
        <time>2019-11-25T12:34:04Z</time>
      </trkpt>
      <trkpt lat="43.91933" lon="5.36527">
        <ele>438.5</ele>
        <time>2019-11-25T12:34:17Z</time>
      </trkpt>
      <trkpt lat="43.9194" lon="5.36533">
        <ele>437.54</ele>
        <time>2019-11-25T12:34:31Z</time>
      </trkpt>
      <trkpt lat="43.91946" lon="5.36539">
        <ele>437.06</ele>
        <time>2019-11-25T12:34:40Z</time>
      </trkpt>
      <trkpt lat="43.91951" lon="5.36541">
        <ele>436.58</ele>
        <time>2019-11-25T12:34:44Z</time>
      </trkpt>
      <trkpt lat="43.9196" lon="5.36546">
        <ele>435.13</ele>
        <time>2019-11-25T12:34:53Z</time>
      </trkpt>
      <trkpt lat="43.91972" lon="5.36555">
        <ele>434.17</ele>
        <time>2019-11-25T12:35:08Z</time>
      </trkpt>
      <trkpt lat="43.91975" lon="5.36556">
        <ele>434.17</ele>
        <time>2019-11-25T12:35:12Z</time>
      </trkpt>
      <trkpt lat="43.91976" lon="5.36558">
        <ele>434.17</ele>
        <time>2019-11-25T12:35:14Z</time>
      </trkpt>
      <trkpt lat="43.91989" lon="5.36565">
        <ele>432.73</ele>
        <time>2019-11-25T12:35:28Z</time>
      </trkpt>
      <trkpt lat="43.92004" lon="5.36576">
        <ele>431.77</ele>
        <time>2019-11-25T12:35:44Z</time>
      </trkpt>
      <trkpt lat="43.92007" lon="5.36578">
        <ele>431.29</ele>
        <time>2019-11-25T12:35:47Z</time>
      </trkpt>
      <trkpt lat="43.9201" lon="5.3658">
        <ele>430.81</ele>
        <time>2019-11-25T12:35:51Z</time>
      </trkpt>
      <trkpt lat="43.92022" lon="5.36592">
        <ele>429.85</ele>
        <time>2019-11-25T12:36:06Z</time>
      </trkpt>
      <trkpt lat="43.92027" lon="5.36597">
        <ele>429.85</ele>
        <time>2019-11-25T12:36:12Z</time>
      </trkpt>
      <trkpt lat="43.92046" lon="5.36606">
        <ele>428.89</ele>
        <time>2019-11-25T12:36:31Z</time>
      </trkpt>
      <trkpt lat="43.92058" lon="5.36605">
        <ele>428.89</ele>
        <time>2019-11-25T12:36:42Z</time>
      </trkpt>
      <trkpt lat="43.92068" lon="5.36604">
        <ele>427.92</ele>
        <time>2019-11-25T12:36:53Z</time>
      </trkpt>
      <trkpt lat="43.92077" lon="5.36592">
        <ele>424.56</ele>
        <time>2019-11-25T12:37:08Z</time>
      </trkpt>
      <trkpt lat="43.92083" lon="5.36586">
        <ele>423.12</ele>
        <time>2019-11-25T12:37:17Z</time>
      </trkpt>
      <trkpt lat="43.92096" lon="5.3658">
        <ele>421.19</ele>
        <time>2019-11-25T12:37:32Z</time>
      </trkpt>
      <trkpt lat="43.92102" lon="5.36578">
        <ele>420.71</ele>
        <time>2019-11-25T12:37:38Z</time>
      </trkpt>
      <trkpt lat="43.92117" lon="5.36569">
        <ele>419.75</ele>
        <time>2019-11-25T12:37:53Z</time>
      </trkpt>
      <trkpt lat="43.92134" lon="5.36562">
        <ele>418.79</ele>
        <time>2019-11-25T12:38:09Z</time>
      </trkpt>
      <trkpt lat="43.92151" lon="5.36559">
        <ele>417.35</ele>
        <time>2019-11-25T12:38:24Z</time>
      </trkpt>
      <trkpt lat="43.92164" lon="5.36553">
        <ele>415.91</ele>
        <time>2019-11-25T12:38:38Z</time>
      </trkpt>
      <trkpt lat="43.9217" lon="5.36549">
        <ele>415.43</ele>
        <time>2019-11-25T12:38:52Z</time>
      </trkpt>
      <trkpt lat="43.92179" lon="5.36545">
        <ele>413.98</ele>
        <time>2019-11-25T12:39:05Z</time>
      </trkpt>
      <trkpt lat="43.92188" lon="5.3654">
        <ele>413.5</ele>
        <time>2019-11-25T12:39:15Z</time>
      </trkpt>
      <trkpt lat="43.92196" lon="5.36536">
        <ele>413.02</ele>
        <time>2019-11-25T12:39:29Z</time>
      </trkpt>
      <trkpt lat="43.92207" lon="5.36532">
        <ele>412.54</ele>
        <time>2019-11-25T12:39:43Z</time>
      </trkpt>
      <trkpt lat="43.92219" lon="5.36524">
        <ele>411.1</ele>
        <time>2019-11-25T12:39:58Z</time>
      </trkpt>
      <trkpt lat="43.92226" lon="5.36521">
        <ele>410.14</ele>
        <time>2019-11-25T12:40:06Z</time>
      </trkpt>
      <trkpt lat="43.92233" lon="5.36518">
        <ele>408.7</ele>
        <time>2019-11-25T12:40:14Z</time>
      </trkpt>
      <trkpt lat="43.92244" lon="5.36516">
        <ele>406.77</ele>
        <time>2019-11-25T12:40:26Z</time>
      </trkpt>
      <trkpt lat="43.92248" lon="5.36516">
        <ele>405.33</ele>
        <time>2019-11-25T12:40:30Z</time>
      </trkpt>
      <trkpt lat="43.92251" lon="5.36513">
        <ele>404.85</ele>
        <time>2019-11-25T12:40:33Z</time>
      </trkpt>
      <trkpt lat="43.92254" lon="5.36513">
        <ele>404.85</ele>
        <time>2019-11-25T12:40:36Z</time>
      </trkpt>
      <trkpt lat="43.9226" lon="5.36511">
        <ele>403.89</ele>
        <time>2019-11-25T12:40:49Z</time>
      </trkpt>
      <trkpt lat="43.9227" lon="5.36512">
        <ele>401.01</ele>
        <time>2019-11-25T12:41:03Z</time>
      </trkpt>
      <trkpt lat="43.9228" lon="5.36511">
        <ele>398.12</ele>
        <time>2019-11-25T12:41:15Z</time>
      </trkpt>
      <trkpt lat="43.92288" lon="5.36508">
        <ele>396.68</ele>
        <time>2019-11-25T12:41:24Z</time>
      </trkpt>
      <trkpt lat="43.92301" lon="5.36502">
        <ele>395.24</ele>
        <time>2019-11-25T12:41:38Z</time>
      </trkpt>
      <trkpt lat="43.92309" lon="5.36503">
        <ele>393.32</ele>
        <time>2019-11-25T12:41:53Z</time>
      </trkpt>
      <trkpt lat="43.92319" lon="5.36501">
        <ele>390.43</ele>
        <time>2019-11-25T12:42:06Z</time>
      </trkpt>
      <trkpt lat="43.92326" lon="5.36501">
        <ele>388.51</ele>
        <time>2019-11-25T12:42:17Z</time>
      </trkpt>
      <trkpt lat="43.92334" lon="5.36499">
        <ele>386.11</ele>
        <time>2019-11-25T12:42:27Z</time>
      </trkpt>
      <trkpt lat="43.92338" lon="5.36495">
        <ele>385.63</ele>
        <time>2019-11-25T12:42:31Z</time>
      </trkpt>
      <trkpt lat="43.92345" lon="5.36492">
        <ele>385.15</ele>
        <time>2019-11-25T12:42:38Z</time>
      </trkpt>
      <trkpt lat="43.92351" lon="5.36485">
        <ele>384.66</ele>
        <time>2019-11-25T12:42:51Z</time>
      </trkpt>
      <trkpt lat="43.92352" lon="5.36485">
        <ele>384.66</ele>
        <time>2019-11-25T12:43:15Z</time>
      </trkpt>
      <trkpt lat="43.92351" lon="5.36484">
        <ele>384.66</ele>
        <time>2019-11-25T12:43:41Z</time>
      </trkpt>
      <trkpt lat="43.9235" lon="5.36486">
        <ele>384.66</ele>
        <time>2019-11-25T12:43:59Z</time>
      </trkpt>
      <trkpt lat="43.9235" lon="5.3649">
        <ele>384.66</ele>
        <time>2019-11-25T12:44:27Z</time>
      </trkpt>
      <trkpt lat="43.92349" lon="5.36486">
        <ele>384.66</ele>
        <time>2019-11-25T12:44:55Z</time>
      </trkpt>
      <trkpt lat="43.9235" lon="5.36483">
        <ele>384.66</ele>
        <time>2019-11-25T12:45:13Z</time>
      </trkpt>
      <trkpt lat="43.92352" lon="5.36483">
        <ele>384.66</ele>
        <time>2019-11-25T12:45:44Z</time>
      </trkpt>
      <trkpt lat="43.92349" lon="5.36483">
        <ele>384.66</ele>
        <time>2019-11-25T12:46:01Z</time>
      </trkpt>
      <trkpt lat="43.92347" lon="5.36488">
        <ele>384.66</ele>
        <time>2019-11-25T12:46:19Z</time>
      </trkpt>
      <trkpt lat="43.92349" lon="5.36488">
        <ele>384.66</ele>
        <time>2019-11-25T12:46:48Z</time>
      </trkpt>
      <trkpt lat="43.9235" lon="5.36485">
        <ele>384.66</ele>
        <time>2019-11-25T12:47:16Z</time>
      </trkpt>
      <trkpt lat="43.92348" lon="5.36483">
        <ele>384.66</ele>
        <time>2019-11-25T12:47:44Z</time>
      </trkpt>
      <trkpt lat="43.92349" lon="5.36486">
        <ele>384.66</ele>
        <time>2019-11-25T12:48:02Z</time>
      </trkpt>
      <trkpt lat="43.9235" lon="5.3649">
        <ele>384.66</ele>
        <time>2019-11-25T12:48:23Z</time>
      </trkpt>
      <trkpt lat="43.92351" lon="5.36488">
        <ele>384.66</ele>
        <time>2019-11-25T12:48:44Z</time>
      </trkpt>
      <trkpt lat="43.92353" lon="5.36496">
        <ele>384.66</ele>
        <time>2019-11-25T12:48:55Z</time>
      </trkpt>
      <trkpt lat="43.92357" lon="5.36503">
        <ele>384.66</ele>
        <time>2019-11-25T12:49:01Z</time>
      </trkpt>
      <trkpt lat="43.92358" lon="5.36506">
        <ele>384.66</ele>
        <time>2019-11-25T12:49:04Z</time>
      </trkpt>
      <trkpt lat="43.92366" lon="5.36524">
        <ele>384.66</ele>
        <time>2019-11-25T12:49:18Z</time>
      </trkpt>
      <trkpt lat="43.92376" lon="5.36537">
        <ele>385.63</ele>
        <time>2019-11-25T12:49:33Z</time>
      </trkpt>
      <trkpt lat="43.9239" lon="5.36549">
        <ele>386.59</ele>
        <time>2019-11-25T12:49:47Z</time>
      </trkpt>
      <trkpt lat="43.92391" lon="5.3655">
        <ele>386.59</ele>
        <time>2019-11-25T12:49:48Z</time>
      </trkpt>
      <trkpt lat="43.92394" lon="5.3657">
        <ele>386.11</ele>
        <time>2019-11-25T12:50:03Z</time>
      </trkpt>
      <trkpt lat="43.92395" lon="5.36588">
        <ele>385.15</ele>
        <time>2019-11-25T12:50:19Z</time>
      </trkpt>
      <trkpt lat="43.92396" lon="5.36603">
        <ele>384.66</ele>
        <time>2019-11-25T12:50:32Z</time>
      </trkpt>
      <trkpt lat="43.92396" lon="5.36617">
        <ele>384.66</ele>
        <time>2019-11-25T12:50:44Z</time>
      </trkpt>
      <trkpt lat="43.92396" lon="5.36618">
        <ele>384.66</ele>
        <time>2019-11-25T12:50:45Z</time>
      </trkpt>
      <trkpt lat="43.92393" lon="5.36629">
        <ele>384.66</ele>
        <time>2019-11-25T12:50:57Z</time>
      </trkpt>
      <trkpt lat="43.92389" lon="5.36636">
        <ele>384.18</ele>
        <time>2019-11-25T12:51:04Z</time>
      </trkpt>
      <trkpt lat="43.92381" lon="5.36649">
        <ele>383.22</ele>
        <time>2019-11-25T12:51:18Z</time>
      </trkpt>
      <trkpt lat="43.9237" lon="5.36658">
        <ele>381.78</ele>
        <time>2019-11-25T12:51:32Z</time>
      </trkpt>
      <trkpt lat="43.92362" lon="5.36671">
        <ele>381.3</ele>
        <time>2019-11-25T12:51:45Z</time>
      </trkpt>
      <trkpt lat="43.92358" lon="5.36675">
        <ele>380.82</ele>
        <time>2019-11-25T12:51:50Z</time>
      </trkpt>
      <trkpt lat="43.92352" lon="5.36681">
        <ele>380.82</ele>
        <time>2019-11-25T12:51:57Z</time>
      </trkpt>
      <trkpt lat="43.92346" lon="5.36685">
        <ele>380.34</ele>
        <time>2019-11-25T12:52:02Z</time>
      </trkpt>
      <trkpt lat="43.92341" lon="5.36689">
        <ele>380.34</ele>
        <time>2019-11-25T12:52:08Z</time>
      </trkpt>
      <trkpt lat="43.92338" lon="5.36691">
        <ele>379.86</ele>
        <time>2019-11-25T12:52:11Z</time>
      </trkpt>
      <trkpt lat="43.92328" lon="5.36701">
        <ele>379.86</ele>
        <time>2019-11-25T12:52:23Z</time>
      </trkpt>
      <trkpt lat="43.92313" lon="5.36706">
        <ele>379.86</ele>
        <time>2019-11-25T12:52:38Z</time>
      </trkpt>
      <trkpt lat="43.9231" lon="5.36708">
        <ele>379.86</ele>
        <time>2019-11-25T12:52:41Z</time>
      </trkpt>
      <trkpt lat="43.92299" lon="5.36713">
        <ele>379.86</ele>
        <time>2019-11-25T12:52:52Z</time>
      </trkpt>
      <trkpt lat="43.92296" lon="5.36713">
        <ele>379.86</ele>
        <time>2019-11-25T12:52:54Z</time>
      </trkpt>
      <trkpt lat="43.92279" lon="5.36721">
        <ele>379.86</ele>
        <time>2019-11-25T12:53:09Z</time>
      </trkpt>
      <trkpt lat="43.92278" lon="5.36721">
        <ele>379.86</ele>
        <time>2019-11-25T12:53:10Z</time>
      </trkpt>
      <trkpt lat="43.92262" lon="5.36729">
        <ele>379.86</ele>
        <time>2019-11-25T12:53:25Z</time>
      </trkpt>
      <trkpt lat="43.92249" lon="5.36738">
        <ele>377.94</ele>
        <time>2019-11-25T12:53:43Z</time>
      </trkpt>
      <trkpt lat="43.9224" lon="5.36739">
        <ele>377.45</ele>
        <time>2019-11-25T12:53:52Z</time>
      </trkpt>
      <trkpt lat="43.92237" lon="5.36741">
        <ele>377.45</ele>
        <time>2019-11-25T12:53:55Z</time>
      </trkpt>
      <trkpt lat="43.92233" lon="5.36744">
        <ele>377.45</ele>
        <time>2019-11-25T12:53:59Z</time>
      </trkpt>
      <trkpt lat="43.92229" lon="5.36751">
        <ele>377.45</ele>
        <time>2019-11-25T12:54:06Z</time>
      </trkpt>
      <trkpt lat="43.92224" lon="5.36754">
        <ele>377.45</ele>
        <time>2019-11-25T12:54:13Z</time>
      </trkpt>
      <trkpt lat="43.92212" lon="5.36771">
        <ele>376.97</ele>
        <time>2019-11-25T12:54:28Z</time>
      </trkpt>
      <trkpt lat="43.92199" lon="5.36774">
        <ele>376.01</ele>
        <time>2019-11-25T12:54:43Z</time>
      </trkpt>
      <trkpt lat="43.92186" lon="5.36774">
        <ele>375.53</ele>
        <time>2019-11-25T12:54:55Z</time>
      </trkpt>
      <trkpt lat="43.92179" lon="5.36774">
        <ele>375.05</ele>
        <time>2019-11-25T12:55:01Z</time>
      </trkpt>
      <trkpt lat="43.92158" lon="5.36771">
        <ele>374.57</ele>
        <time>2019-11-25T12:55:22Z</time>
      </trkpt>
      <trkpt lat="43.9215" lon="5.36771">
        <ele>374.57</ele>
        <time>2019-11-25T12:55:29Z</time>
      </trkpt>
      <trkpt lat="43.92145" lon="5.36772">
        <ele>374.57</ele>
        <time>2019-11-25T12:55:33Z</time>
      </trkpt>
      <trkpt lat="43.92124" lon="5.3677">
        <ele>374.57</ele>
        <time>2019-11-25T12:55:53Z</time>
      </trkpt>
      <trkpt lat="43.92102" lon="5.36764">
        <ele>374.57</ele>
        <time>2019-11-25T12:56:12Z</time>
      </trkpt>
      <trkpt lat="43.92096" lon="5.36762">
        <ele>374.57</ele>
        <time>2019-11-25T12:56:17Z</time>
      </trkpt>
      <trkpt lat="43.92077" lon="5.36759">
        <ele>375.53</ele>
        <time>2019-11-25T12:56:36Z</time>
      </trkpt>
      <trkpt lat="43.92062" lon="5.36762">
        <ele>376.97</ele>
        <time>2019-11-25T12:56:52Z</time>
      </trkpt>
      <trkpt lat="43.92043" lon="5.36763">
        <ele>378.42</ele>
        <time>2019-11-25T12:57:09Z</time>
      </trkpt>
      <trkpt lat="43.92032" lon="5.36763">
        <ele>378.9</ele>
        <time>2019-11-25T12:57:22Z</time>
      </trkpt>
      <trkpt lat="43.92031" lon="5.36762">
        <ele>379.38</ele>
        <time>2019-11-25T12:57:26Z</time>
      </trkpt>
      <trkpt lat="43.92017" lon="5.3676">
        <ele>379.86</ele>
        <time>2019-11-25T12:57:41Z</time>
      </trkpt>
      <trkpt lat="43.92005" lon="5.3676">
        <ele>380.82</ele>
        <time>2019-11-25T12:57:54Z</time>
      </trkpt>
      <trkpt lat="43.91996" lon="5.36762">
        <ele>381.3</ele>
        <time>2019-11-25T12:58:06Z</time>
      </trkpt>
      <trkpt lat="43.91996" lon="5.36763">
        <ele>381.78</ele>
        <time>2019-11-25T12:58:07Z</time>
      </trkpt>
      <trkpt lat="43.91991" lon="5.36761">
        <ele>381.78</ele>
        <time>2019-11-25T12:58:12Z</time>
      </trkpt>
      <trkpt lat="43.91974" lon="5.3676">
        <ele>382.74</ele>
        <time>2019-11-25T12:58:28Z</time>
      </trkpt>
      <trkpt lat="43.91963" lon="5.36757">
        <ele>383.22</ele>
        <time>2019-11-25T12:58:41Z</time>
      </trkpt>
      <trkpt lat="43.91948" lon="5.36751">
        <ele>383.7</ele>
        <time>2019-11-25T12:58:55Z</time>
      </trkpt>
      <trkpt lat="43.91932" lon="5.36744">
        <ele>384.18</ele>
        <time>2019-11-25T12:59:10Z</time>
      </trkpt>
      <trkpt lat="43.91926" lon="5.36739">
        <ele>384.18</ele>
        <time>2019-11-25T12:59:16Z</time>
      </trkpt>
      <trkpt lat="43.9191" lon="5.36726">
        <ele>385.15</ele>
        <time>2019-11-25T12:59:32Z</time>
      </trkpt>
      <trkpt lat="43.91898" lon="5.36717">
        <ele>386.11</ele>
        <time>2019-11-25T12:59:46Z</time>
      </trkpt>
      <trkpt lat="43.91886" lon="5.36711">
        <ele>386.59</ele>
        <time>2019-11-25T12:59:59Z</time>
      </trkpt>
      <trkpt lat="43.91875" lon="5.3671">
        <ele>386.59</ele>
        <time>2019-11-25T13:00:09Z</time>
      </trkpt>
      <trkpt lat="43.91862" lon="5.36712">
        <ele>386.59</ele>
        <time>2019-11-25T13:00:24Z</time>
      </trkpt>
      <trkpt lat="43.91844" lon="5.36718">
        <ele>384.66</ele>
        <time>2019-11-25T13:00:40Z</time>
      </trkpt>
      <trkpt lat="43.91828" lon="5.36719">
        <ele>383.22</ele>
        <time>2019-11-25T13:00:56Z</time>
      </trkpt>
      <trkpt lat="43.91811" lon="5.36719">
        <ele>383.22</ele>
        <time>2019-11-25T13:01:12Z</time>
      </trkpt>
      <trkpt lat="43.91799" lon="5.3672">
        <ele>382.74</ele>
        <time>2019-11-25T13:01:25Z</time>
      </trkpt>
      <trkpt lat="43.91783" lon="5.36717">
        <ele>382.74</ele>
        <time>2019-11-25T13:01:40Z</time>
      </trkpt>
      <trkpt lat="43.9178" lon="5.36717">
        <ele>382.74</ele>
        <time>2019-11-25T13:01:43Z</time>
      </trkpt>
      <trkpt lat="43.91773" lon="5.36704">
        <ele>384.66</ele>
        <time>2019-11-25T13:02:00Z</time>
      </trkpt>
      <trkpt lat="43.91769" lon="5.36711">
        <ele>384.66</ele>
        <time>2019-11-25T13:02:12Z</time>
      </trkpt>
      <trkpt lat="43.91762" lon="5.36708">
        <ele>384.66</ele>
        <time>2019-11-25T13:02:20Z</time>
      </trkpt>
      <trkpt lat="43.9175" lon="5.36701">
        <ele>385.63</ele>
        <time>2019-11-25T13:02:35Z</time>
      </trkpt>
      <trkpt lat="43.91739" lon="5.36694">
        <ele>386.59</ele>
        <time>2019-11-25T13:02:47Z</time>
      </trkpt>
      <trkpt lat="43.91725" lon="5.36686">
        <ele>387.55</ele>
        <time>2019-11-25T13:03:03Z</time>
      </trkpt>
      <trkpt lat="43.91714" lon="5.36684">
        <ele>388.03</ele>
        <time>2019-11-25T13:03:16Z</time>
      </trkpt>
      <trkpt lat="43.91708" lon="5.36683">
        <ele>388.03</ele>
        <time>2019-11-25T13:03:35Z</time>
      </trkpt>
      <trkpt lat="43.91699" lon="5.36684">
        <ele>388.03</ele>
        <time>2019-11-25T13:03:48Z</time>
      </trkpt>
      <trkpt lat="43.91685" lon="5.36679">
        <ele>388.03</ele>
        <time>2019-11-25T13:04:03Z</time>
      </trkpt>
      <trkpt lat="43.91671" lon="5.3668">
        <ele>388.51</ele>
        <time>2019-11-25T13:04:16Z</time>
      </trkpt>
      <trkpt lat="43.91657" lon="5.36677">
        <ele>388.51</ele>
        <time>2019-11-25T13:04:30Z</time>
      </trkpt>
      <trkpt lat="43.91656" lon="5.36677">
        <ele>387.07</ele>
        <time>2019-11-25T13:04:33Z</time>
      </trkpt>
      <trkpt lat="43.91647" lon="5.36673">
        <ele>386.59</ele>
        <time>2019-11-25T13:04:45Z</time>
      </trkpt>
      <trkpt lat="43.91639" lon="5.36671">
        <ele>386.11</ele>
        <time>2019-11-25T13:05:00Z</time>
      </trkpt>
      <trkpt lat="43.91633" lon="5.36664">
        <ele>386.11</ele>
        <time>2019-11-25T13:05:13Z</time>
      </trkpt>
      <trkpt lat="43.91632" lon="5.36663">
        <ele>386.11</ele>
        <time>2019-11-25T13:05:15Z</time>
      </trkpt>
      <trkpt lat="43.91627" lon="5.36659">
        <ele>386.11</ele>
        <time>2019-11-25T13:05:27Z</time>
      </trkpt>
      <trkpt lat="43.91622" lon="5.36656">
        <ele>386.11</ele>
        <time>2019-11-25T13:05:39Z</time>
      </trkpt>
      <trkpt lat="43.91622" lon="5.36655">
        <ele>386.11</ele>
        <time>2019-11-25T13:06:04Z</time>
      </trkpt>
      <trkpt lat="43.91614" lon="5.36651">
        <ele>385.63</ele>
        <time>2019-11-25T13:06:19Z</time>
      </trkpt>
      <trkpt lat="43.91596" lon="5.36641">
        <ele>384.18</ele>
        <time>2019-11-25T13:06:36Z</time>
      </trkpt>
      <trkpt lat="43.91579" lon="5.3663">
        <ele>382.26</ele>
        <time>2019-11-25T13:06:54Z</time>
      </trkpt>
      <trkpt lat="43.91563" lon="5.36615">
        <ele>381.78</ele>
        <time>2019-11-25T13:07:10Z</time>
      </trkpt>
      <trkpt lat="43.91553" lon="5.36609">
        <ele>381.78</ele>
        <time>2019-11-25T13:07:23Z</time>
      </trkpt>
      <trkpt lat="43.91551" lon="5.36606">
        <ele>382.74</ele>
        <time>2019-11-25T13:07:26Z</time>
      </trkpt>
      <trkpt lat="43.91547" lon="5.36605">
        <ele>383.22</ele>
        <time>2019-11-25T13:07:30Z</time>
      </trkpt>
      <trkpt lat="43.91537" lon="5.36599">
        <ele>384.18</ele>
        <time>2019-11-25T13:07:43Z</time>
      </trkpt>
      <trkpt lat="43.91524" lon="5.3659">
        <ele>385.63</ele>
        <time>2019-11-25T13:07:57Z</time>
      </trkpt>
      <trkpt lat="43.91523" lon="5.36589">
        <ele>385.63</ele>
        <time>2019-11-25T13:07:58Z</time>
      </trkpt>
      <trkpt lat="43.91521" lon="5.36586">
        <ele>386.11</ele>
        <time>2019-11-25T13:08:01Z</time>
      </trkpt>
      <trkpt lat="43.91509" lon="5.36577">
        <ele>387.07</ele>
        <time>2019-11-25T13:08:17Z</time>
      </trkpt>
      <trkpt lat="43.91504" lon="5.36566">
        <ele>388.03</ele>
        <time>2019-11-25T13:08:27Z</time>
      </trkpt>
      <trkpt lat="43.91503" lon="5.36562">
        <ele>388.03</ele>
        <time>2019-11-25T13:08:30Z</time>
      </trkpt>
      <trkpt lat="43.91497" lon="5.36543">
        <ele>388.99</ele>
        <time>2019-11-25T13:08:44Z</time>
      </trkpt>
      <trkpt lat="43.91492" lon="5.36531">
        <ele>389.47</ele>
        <time>2019-11-25T13:08:53Z</time>
      </trkpt>
      <trkpt lat="43.9149" lon="5.36522">
        <ele>389.95</ele>
        <time>2019-11-25T13:09:00Z</time>
      </trkpt>
      <trkpt lat="43.91484" lon="5.36505">
        <ele>390.91</ele>
        <time>2019-11-25T13:09:15Z</time>
      </trkpt>
      <trkpt lat="43.91482" lon="5.36505">
        <ele>387.55</ele>
        <time>2019-11-25T13:09:23Z</time>
      </trkpt>
      <trkpt lat="43.91479" lon="5.36502">
        <ele>389.47</ele>
        <time>2019-11-25T13:10:08Z</time>
      </trkpt>
      <trkpt lat="43.91477" lon="5.36505">
        <ele>389.47</ele>
        <time>2019-11-25T13:10:49Z</time>
      </trkpt>
      <trkpt lat="43.91478" lon="5.36504">
        <ele>391.39</ele>
        <time>2019-11-25T13:10:51Z</time>
      </trkpt>
      <trkpt lat="43.91478" lon="5.36504">
        <ele>388.03</ele>
        <time>2019-11-25T13:10:53Z</time>
      </trkpt>
      <trkpt lat="43.91477" lon="5.365">
        <ele>390.91</ele>
        <time>2019-11-25T13:11:12Z</time>
      </trkpt>
      <trkpt lat="43.91476" lon="5.365">
        <ele>390.91</ele>
        <time>2019-11-25T13:11:13Z</time>
      </trkpt>
      <trkpt lat="43.91462" lon="5.36502">
        <ele>389.47</ele>
        <time>2019-11-25T13:11:24Z</time>
      </trkpt>
      <trkpt lat="43.91449" lon="5.365">
        <ele>389.47</ele>
        <time>2019-11-25T13:11:33Z</time>
      </trkpt>
      <trkpt lat="43.91442" lon="5.36495">
        <ele>388.99</ele>
        <time>2019-11-25T13:11:47Z</time>
      </trkpt>
      <trkpt lat="43.91444" lon="5.36495">
        <ele>388.99</ele>
        <time>2019-11-25T13:12:06Z</time>
      </trkpt>
      <trkpt lat="43.91438" lon="5.3649">
        <ele>388.99</ele>
        <time>2019-11-25T13:12:23Z</time>
      </trkpt>
      <trkpt lat="43.91425" lon="5.36486">
        <ele>388.51</ele>
        <time>2019-11-25T13:12:39Z</time>
      </trkpt>
      <trkpt lat="43.91416" lon="5.36486">
        <ele>386.59</ele>
        <time>2019-11-25T13:12:52Z</time>
      </trkpt>
      <trkpt lat="43.91407" lon="5.36487">
        <ele>384.66</ele>
        <time>2019-11-25T13:13:03Z</time>
      </trkpt>
      <trkpt lat="43.91395" lon="5.36485">
        <ele>383.22</ele>
        <time>2019-11-25T13:13:17Z</time>
      </trkpt>
      <trkpt lat="43.91381" lon="5.36482">
        <ele>381.78</ele>
        <time>2019-11-25T13:13:32Z</time>
      </trkpt>
      <trkpt lat="43.91369" lon="5.3648">
        <ele>380.82</ele>
        <time>2019-11-25T13:13:45Z</time>
      </trkpt>
      <trkpt lat="43.91366" lon="5.3648">
        <ele>380.82</ele>
        <time>2019-11-25T13:13:48Z</time>
      </trkpt>
      <trkpt lat="43.91351" lon="5.36472">
        <ele>378.9</ele>
        <time>2019-11-25T13:14:04Z</time>
      </trkpt>
      <trkpt lat="43.91342" lon="5.36465">
        <ele>376.97</ele>
        <time>2019-11-25T13:14:17Z</time>
      </trkpt>
      <trkpt lat="43.91334" lon="5.36458">
        <ele>375.05</ele>
        <time>2019-11-25T13:14:34Z</time>
      </trkpt>
      <trkpt lat="43.91325" lon="5.36447">
        <ele>373.61</ele>
        <time>2019-11-25T13:14:47Z</time>
      </trkpt>
      <trkpt lat="43.91313" lon="5.36428">
        <ele>372.65</ele>
        <time>2019-11-25T13:15:03Z</time>
      </trkpt>
      <trkpt lat="43.91307" lon="5.36417">
        <ele>370.73</ele>
        <time>2019-11-25T13:15:15Z</time>
      </trkpt>
      <trkpt lat="43.91302" lon="5.36408">
        <ele>369.28</ele>
        <time>2019-11-25T13:15:27Z</time>
      </trkpt>
      <trkpt lat="43.91297" lon="5.36392">
        <ele>366.4</ele>
        <time>2019-11-25T13:15:43Z</time>
      </trkpt>
      <trkpt lat="43.9129" lon="5.3638">
        <ele>364.48</ele>
        <time>2019-11-25T13:15:56Z</time>
      </trkpt>
      <trkpt lat="43.91284" lon="5.36365">
        <ele>361.59</ele>
        <time>2019-11-25T13:16:10Z</time>
      </trkpt>
      <trkpt lat="43.91279" lon="5.36351">
        <ele>359.19</ele>
        <time>2019-11-25T13:16:24Z</time>
      </trkpt>
      <trkpt lat="43.91272" lon="5.36338">
        <ele>356.79</ele>
        <time>2019-11-25T13:16:37Z</time>
      </trkpt>
      <trkpt lat="43.91265" lon="5.36327">
        <ele>353.42</ele>
        <time>2019-11-25T13:16:49Z</time>
      </trkpt>
      <trkpt lat="43.91258" lon="5.36317">
        <ele>351.02</ele>
        <time>2019-11-25T13:17:02Z</time>
      </trkpt>
      <trkpt lat="43.91249" lon="5.36308">
        <ele>348.62</ele>
        <time>2019-11-25T13:17:15Z</time>
      </trkpt>
      <trkpt lat="43.91243" lon="5.36299">
        <ele>346.69</ele>
        <time>2019-11-25T13:17:29Z</time>
      </trkpt>
      <trkpt lat="43.91236" lon="5.36287">
        <ele>343.81</ele>
        <time>2019-11-25T13:17:44Z</time>
      </trkpt>
      <trkpt lat="43.91228" lon="5.36274">
        <ele>340.92</ele>
        <time>2019-11-25T13:17:59Z</time>
      </trkpt>
      <trkpt lat="43.91221" lon="5.36263">
        <ele>339.48</ele>
        <time>2019-11-25T13:18:10Z</time>
      </trkpt>
      <trkpt lat="43.91214" lon="5.36254">
        <ele>338.04</ele>
        <time>2019-11-25T13:18:24Z</time>
      </trkpt>
      <trkpt lat="43.91209" lon="5.36249">
        <ele>336.6</ele>
        <time>2019-11-25T13:18:32Z</time>
      </trkpt>
      <trkpt lat="43.91201" lon="5.36238">
        <ele>334.68</ele>
        <time>2019-11-25T13:18:46Z</time>
      </trkpt>
      <trkpt lat="43.91196" lon="5.36232">
        <ele>333.71</ele>
        <time>2019-11-25T13:18:59Z</time>
      </trkpt>
      <trkpt lat="43.91184" lon="5.3622">
        <ele>332.27</ele>
        <time>2019-11-25T13:19:14Z</time>
      </trkpt>
      <trkpt lat="43.91182" lon="5.36219">
        <ele>331.79</ele>
        <time>2019-11-25T13:19:16Z</time>
      </trkpt>
      <trkpt lat="43.91169" lon="5.3621">
        <ele>329.39</ele>
        <time>2019-11-25T13:19:32Z</time>
      </trkpt>
      <trkpt lat="43.91159" lon="5.36201">
        <ele>326.99</ele>
        <time>2019-11-25T13:19:45Z</time>
      </trkpt>
      <trkpt lat="43.91149" lon="5.36181">
        <ele>324.1</ele>
        <time>2019-11-25T13:20:01Z</time>
      </trkpt>
      <trkpt lat="43.91148" lon="5.36175">
        <ele>323.62</ele>
        <time>2019-11-25T13:20:06Z</time>
      </trkpt>
      <trkpt lat="43.91147" lon="5.3617">
        <ele>322.18</ele>
        <time>2019-11-25T13:20:10Z</time>
      </trkpt>
      <trkpt lat="43.91144" lon="5.36166">
        <ele>321.7</ele>
        <time>2019-11-25T13:20:14Z</time>
      </trkpt>
      <trkpt lat="43.91141" lon="5.36166">
        <ele>321.22</ele>
        <time>2019-11-25T13:20:16Z</time>
      </trkpt>
      <trkpt lat="43.91133" lon="5.36157">
        <ele>319.78</ele>
        <time>2019-11-25T13:20:27Z</time>
      </trkpt>
      <trkpt lat="43.91127" lon="5.36152">
        <ele>318.33</ele>
        <time>2019-11-25T13:20:33Z</time>
      </trkpt>
      <trkpt lat="43.9112" lon="5.36148">
        <ele>317.85</ele>
        <time>2019-11-25T13:20:40Z</time>
      </trkpt>
      <trkpt lat="43.91118" lon="5.36145">
        <ele>317.85</ele>
        <time>2019-11-25T13:20:43Z</time>
      </trkpt>
      <trkpt lat="43.91105" lon="5.36136">
        <ele>316.89</ele>
        <time>2019-11-25T13:20:55Z</time>
      </trkpt>
      <trkpt lat="43.91097" lon="5.36134">
        <ele>316.41</ele>
        <time>2019-11-25T13:21:10Z</time>
      </trkpt>
      <trkpt lat="43.91092" lon="5.3613">
        <ele>316.41</ele>
        <time>2019-11-25T13:21:23Z</time>
      </trkpt>
      <trkpt lat="43.9108" lon="5.36124">
        <ele>316.41</ele>
        <time>2019-11-25T13:21:35Z</time>
      </trkpt>
      <trkpt lat="43.91078" lon="5.36123">
        <ele>316.41</ele>
        <time>2019-11-25T13:21:37Z</time>
      </trkpt>
      <trkpt lat="43.9107" lon="5.3612">
        <ele>317.85</ele>
        <time>2019-11-25T13:21:44Z</time>
      </trkpt>
      <trkpt lat="43.91063" lon="5.36117">
        <ele>317.37</ele>
        <time>2019-11-25T13:21:56Z</time>
      </trkpt>
      <trkpt lat="43.91053" lon="5.36115">
        <ele>317.85</ele>
        <time>2019-11-25T13:22:10Z</time>
      </trkpt>
      <trkpt lat="43.91042" lon="5.36113">
        <ele>317.85</ele>
        <time>2019-11-25T13:22:24Z</time>
      </trkpt>
      <trkpt lat="43.91028" lon="5.36109">
        <ele>317.85</ele>
        <time>2019-11-25T13:22:40Z</time>
      </trkpt>
      <trkpt lat="43.91012" lon="5.36108">
        <ele>317.85</ele>
        <time>2019-11-25T13:22:55Z</time>
      </trkpt>
      <trkpt lat="43.91005" lon="5.36109">
        <ele>316.89</ele>
        <time>2019-11-25T13:23:01Z</time>
      </trkpt>
      <trkpt lat="43.91002" lon="5.36108">
        <ele>316.41</ele>
        <time>2019-11-25T13:23:04Z</time>
      </trkpt>
      <trkpt lat="43.90998" lon="5.36107">
        <ele>316.41</ele>
        <time>2019-11-25T13:23:08Z</time>
      </trkpt>
      <trkpt lat="43.90986" lon="5.36106">
        <ele>314.49</ele>
        <time>2019-11-25T13:23:21Z</time>
      </trkpt>
      <trkpt lat="43.90984" lon="5.36105">
        <ele>314.49</ele>
        <time>2019-11-25T13:23:24Z</time>
      </trkpt>
      <trkpt lat="43.90982" lon="5.36102">
        <ele>314.49</ele>
        <time>2019-11-25T13:23:27Z</time>
      </trkpt>
      <trkpt lat="43.90972" lon="5.36097">
        <ele>313.53</ele>
        <time>2019-11-25T13:23:37Z</time>
      </trkpt>
      <trkpt lat="43.90957" lon="5.36089">
        <ele>313.05</ele>
        <time>2019-11-25T13:23:53Z</time>
      </trkpt>
      <trkpt lat="43.90952" lon="5.36091">
        <ele>311.12</ele>
        <time>2019-11-25T13:23:57Z</time>
      </trkpt>
      <trkpt lat="43.90941" lon="5.36087">
        <ele>310.16</ele>
        <time>2019-11-25T13:24:12Z</time>
      </trkpt>
      <trkpt lat="43.90926" lon="5.36074">
        <ele>309.68</ele>
        <time>2019-11-25T13:24:29Z</time>
      </trkpt>
      <trkpt lat="43.90916" lon="5.36059">
        <ele>309.68</ele>
        <time>2019-11-25T13:24:43Z</time>
      </trkpt>
      <trkpt lat="43.90904" lon="5.36041">
        <ele>310.64</ele>
        <time>2019-11-25T13:24:59Z</time>
      </trkpt>
      <trkpt lat="43.90904" lon="5.3604">
        <ele>310.64</ele>
        <time>2019-11-25T13:25:00Z</time>
      </trkpt>
      <trkpt lat="43.90901" lon="5.36035">
        <ele>311.12</ele>
        <time>2019-11-25T13:25:06Z</time>
      </trkpt>
      <trkpt lat="43.90892" lon="5.36024">
        <ele>311.6</ele>
        <time>2019-11-25T13:25:20Z</time>
      </trkpt>
      <trkpt lat="43.9089" lon="5.36023">
        <ele>311.6</ele>
        <time>2019-11-25T13:25:22Z</time>
      </trkpt>
      <trkpt lat="43.90877" lon="5.36011">
        <ele>309.2</ele>
        <time>2019-11-25T13:25:38Z</time>
      </trkpt>
      <trkpt lat="43.90872" lon="5.36008">
        <ele>308.24</ele>
        <time>2019-11-25T13:25:42Z</time>
      </trkpt>
      <trkpt lat="43.90869" lon="5.36006">
        <ele>308.24</ele>
        <time>2019-11-25T13:25:45Z</time>
      </trkpt>
      <trkpt lat="43.90849" lon="5.35995">
        <ele>305.84</ele>
        <time>2019-11-25T13:26:03Z</time>
      </trkpt>
      <trkpt lat="43.90845" lon="5.35993">
        <ele>305.36</ele>
        <time>2019-11-25T13:26:08Z</time>
      </trkpt>
      <trkpt lat="43.90832" lon="5.35983">
        <ele>303.43</ele>
        <time>2019-11-25T13:26:21Z</time>
      </trkpt>
      <trkpt lat="43.90817" lon="5.35969">
        <ele>301.51</ele>
        <time>2019-11-25T13:26:37Z</time>
      </trkpt>
      <trkpt lat="43.90801" lon="5.35954">
        <ele>299.11</ele>
        <time>2019-11-25T13:26:54Z</time>
      </trkpt>
      <trkpt lat="43.90787" lon="5.35941">
        <ele>296.7</ele>
        <time>2019-11-25T13:27:09Z</time>
      </trkpt>
      <trkpt lat="43.90781" lon="5.35933">
        <ele>296.7</ele>
        <time>2019-11-25T13:27:16Z</time>
      </trkpt>
      <trkpt lat="43.9078" lon="5.35931">
        <ele>295.74</ele>
        <time>2019-11-25T13:27:18Z</time>
      </trkpt>
      <trkpt lat="43.90762" lon="5.35921">
        <ele>294.78</ele>
        <time>2019-11-25T13:27:36Z</time>
      </trkpt>
      <trkpt lat="43.90755" lon="5.35924">
        <ele>294.3</ele>
        <time>2019-11-25T13:27:44Z</time>
      </trkpt>
      <trkpt lat="43.9074" lon="5.35927">
        <ele>293.34</ele>
        <time>2019-11-25T13:27:59Z</time>
      </trkpt>
      <trkpt lat="43.90741" lon="5.35928">
        <ele>291.42</ele>
        <time>2019-11-25T13:28:06Z</time>
      </trkpt>
      <trkpt lat="43.9074" lon="5.35928">
        <ele>293.34</ele>
        <time>2019-11-25T13:28:08Z</time>
      </trkpt>
      <trkpt lat="43.9074" lon="5.35928">
        <ele>293.34</ele>
        <time>2019-11-25T13:28:14Z</time>
      </trkpt>
      <trkpt lat="43.9074" lon="5.35929">
        <ele>293.34</ele>
        <time>2019-11-25T13:28:18Z</time>
      </trkpt>
      <trkpt lat="43.90737" lon="5.35938">
        <ele>293.34</ele>
        <time>2019-11-25T13:28:26Z</time>
      </trkpt>
      <trkpt lat="43.90726" lon="5.35954">
        <ele>291.9</ele>
        <time>2019-11-25T13:28:43Z</time>
      </trkpt>
      <trkpt lat="43.90722" lon="5.35958">
        <ele>291.9</ele>
        <time>2019-11-25T13:28:47Z</time>
      </trkpt>
      <trkpt lat="43.90712" lon="5.35969">
        <ele>290.94</ele>
        <time>2019-11-25T13:29:04Z</time>
      </trkpt>
      <trkpt lat="43.90711" lon="5.3597">
        <ele>290.94</ele>
        <time>2019-11-25T13:29:06Z</time>
      </trkpt>
      <trkpt lat="43.90707" lon="5.35971">
        <ele>290.46</ele>
        <time>2019-11-25T13:29:22Z</time>
      </trkpt>
      <trkpt lat="43.90705" lon="5.35971">
        <ele>290.46</ele>
        <time>2019-11-25T13:29:25Z</time>
      </trkpt>
      <trkpt lat="43.907" lon="5.35963">
        <ele>290.46</ele>
        <time>2019-11-25T13:29:33Z</time>
      </trkpt>
      <trkpt lat="43.90697" lon="5.35935">
        <ele>290.46</ele>
        <time>2019-11-25T13:29:52Z</time>
      </trkpt>
      <trkpt lat="43.90699" lon="5.35928">
        <ele>290.46</ele>
        <time>2019-11-25T13:29:57Z</time>
      </trkpt>
      <trkpt lat="43.907" lon="5.35927">
        <ele>290.46</ele>
        <time>2019-11-25T13:29:58Z</time>
      </trkpt>
      <trkpt lat="43.90701" lon="5.35926">
        <ele>290.46</ele>
        <time>2019-11-25T13:29:59Z</time>
      </trkpt>
      <trkpt lat="43.90702" lon="5.35925">
        <ele>291.9</ele>
        <time>2019-11-25T13:30:00Z</time>
      </trkpt>
      <trkpt lat="43.90703" lon="5.35924">
        <ele>291.9</ele>
        <time>2019-11-25T13:30:01Z</time>
      </trkpt>
      <trkpt lat="43.90703" lon="5.35922">
        <ele>291.9</ele>
        <time>2019-11-25T13:30:02Z</time>
      </trkpt>
      <trkpt lat="43.90704" lon="5.35921">
        <ele>291.9</ele>
        <time>2019-11-25T13:30:03Z</time>
      </trkpt>
      <trkpt lat="43.90707" lon="5.35911">
        <ele>292.38</ele>
        <time>2019-11-25T13:30:10Z</time>
      </trkpt>
      <trkpt lat="43.90705" lon="5.35883">
        <ele>292.38</ele>
        <time>2019-11-25T13:30:28Z</time>
      </trkpt>
      <trkpt lat="43.90692" lon="5.35875">
        <ele>290.94</ele>
        <time>2019-11-25T13:30:42Z</time>
      </trkpt>
      <trkpt lat="43.9069" lon="5.35876">
        <ele>290.94</ele>
        <time>2019-11-25T13:30:43Z</time>
      </trkpt>
      <trkpt lat="43.90675" lon="5.3587">
        <ele>289.49</ele>
        <time>2019-11-25T13:30:58Z</time>
      </trkpt>
      <trkpt lat="43.90663" lon="5.35849">
        <ele>288.05</ele>
        <time>2019-11-25T13:31:16Z</time>
      </trkpt>
      <trkpt lat="43.90651" lon="5.35823">
        <ele>286.13</ele>
        <time>2019-11-25T13:31:36Z</time>
      </trkpt>
      <trkpt lat="43.90646" lon="5.35813">
        <ele>285.65</ele>
        <time>2019-11-25T13:31:44Z</time>
      </trkpt>
      <trkpt lat="43.90631" lon="5.35795">
        <ele>283.73</ele>
        <time>2019-11-25T13:32:02Z</time>
      </trkpt>
      <trkpt lat="43.9063" lon="5.35793">
        <ele>283.25</ele>
        <time>2019-11-25T13:32:04Z</time>
      </trkpt>
      <trkpt lat="43.90629" lon="5.35791">
        <ele>283.25</ele>
        <time>2019-11-25T13:32:05Z</time>
      </trkpt>
      <trkpt lat="43.90628" lon="5.35791">
        <ele>283.25</ele>
        <time>2019-11-25T13:32:06Z</time>
      </trkpt>
      <trkpt lat="43.90627" lon="5.3579">
        <ele>283.25</ele>
        <time>2019-11-25T13:32:07Z</time>
      </trkpt>
      <trkpt lat="43.90626" lon="5.3579">
        <ele>283.25</ele>
        <time>2019-11-25T13:32:08Z</time>
      </trkpt>
      <trkpt lat="43.90624" lon="5.35789">
        <ele>282.77</ele>
        <time>2019-11-25T13:32:09Z</time>
      </trkpt>
      <trkpt lat="43.90623" lon="5.35789">
        <ele>282.77</ele>
        <time>2019-11-25T13:32:10Z</time>
      </trkpt>
      <trkpt lat="43.90622" lon="5.35789">
        <ele>282.77</ele>
        <time>2019-11-25T13:32:11Z</time>
      </trkpt>
      <trkpt lat="43.90606" lon="5.35784">
        <ele>282.28</ele>
        <time>2019-11-25T13:32:26Z</time>
      </trkpt>
      <trkpt lat="43.90591" lon="5.35785">
        <ele>280.84</ele>
        <time>2019-11-25T13:32:40Z</time>
      </trkpt>
      <trkpt lat="43.9059" lon="5.35785">
        <ele>280.84</ele>
        <time>2019-11-25T13:32:41Z</time>
      </trkpt>
      <trkpt lat="43.90589" lon="5.35785">
        <ele>280.84</ele>
        <time>2019-11-25T13:32:42Z</time>
      </trkpt>
      <trkpt lat="43.90571" lon="5.35785">
        <ele>279.88</ele>
        <time>2019-11-25T13:32:58Z</time>
      </trkpt>
      <trkpt lat="43.90549" lon="5.35783">
        <ele>278.44</ele>
        <time>2019-11-25T13:33:16Z</time>
      </trkpt>
      <trkpt lat="43.90528" lon="5.3578">
        <ele>277.48</ele>
        <time>2019-11-25T13:33:34Z</time>
      </trkpt>
      <trkpt lat="43.90508" lon="5.35777">
        <ele>275.56</ele>
        <time>2019-11-25T13:33:51Z</time>
      </trkpt>
      <trkpt lat="43.90489" lon="5.35775">
        <ele>274.59</ele>
        <time>2019-11-25T13:34:08Z</time>
      </trkpt>
      <trkpt lat="43.90479" lon="5.35774">
        <ele>274.11</ele>
        <time>2019-11-25T13:34:17Z</time>
      </trkpt>
      <trkpt lat="43.90458" lon="5.3577">
        <ele>272.19</ele>
        <time>2019-11-25T13:34:35Z</time>
      </trkpt>
      <trkpt lat="43.90438" lon="5.35765">
        <ele>270.75</ele>
        <time>2019-11-25T13:34:53Z</time>
      </trkpt>
      <trkpt lat="43.90436" lon="5.35764">
        <ele>270.27</ele>
        <time>2019-11-25T13:34:55Z</time>
      </trkpt>
      <trkpt lat="43.90435" lon="5.35764">
        <ele>270.27</ele>
        <time>2019-11-25T13:34:56Z</time>
      </trkpt>
      <trkpt lat="43.90428" lon="5.35764">
        <ele>270.27</ele>
        <time>2019-11-25T13:35:02Z</time>
      </trkpt>
      <trkpt lat="43.90422" lon="5.35765">
        <ele>269.79</ele>
        <time>2019-11-25T13:35:07Z</time>
      </trkpt>
      <trkpt lat="43.90421" lon="5.35766">
        <ele>269.79</ele>
        <time>2019-11-25T13:35:08Z</time>
      </trkpt>
      <trkpt lat="43.904" lon="5.35764">
        <ele>268.83</ele>
        <time>2019-11-25T13:35:29Z</time>
      </trkpt>
      <trkpt lat="43.90388" lon="5.35761">
        <ele>268.83</ele>
        <time>2019-11-25T13:35:41Z</time>
      </trkpt>
      <trkpt lat="43.90367" lon="5.35763">
        <ele>268.83</ele>
        <time>2019-11-25T13:35:59Z</time>
      </trkpt>
      <trkpt lat="43.90343" lon="5.35764">
        <ele>268.83</ele>
        <time>2019-11-25T13:36:19Z</time>
      </trkpt>
      <trkpt lat="43.9034" lon="5.35758">
        <ele>268.35</ele>
        <time>2019-11-25T13:36:31Z</time>
      </trkpt>
      <trkpt lat="43.9034" lon="5.35757">
        <ele>266.9</ele>
        <time>2019-11-25T13:36:42Z</time>
      </trkpt>
      <trkpt lat="43.90339" lon="5.35757">
        <ele>268.83</ele>
        <time>2019-11-25T13:36:55Z</time>
      </trkpt>
      <trkpt lat="43.90338" lon="5.35756">
        <ele>268.83</ele>
        <time>2019-11-25T13:37:24Z</time>
      </trkpt>
    </trkseg>
  </trk>
</gpx>